Flight Track Log - Related Links

Times and Time Zones

All times are in EDT time to prevent confusion due to time zone crossing. See the AFL150 flight status page for this flight to view local times or setup timezone preferences in your user account.

Time Position Orientation Groundspeed Altitude Reporting Facility
EDT Latitude Longitude Course Direction KTS MPH feet Rate Location/Type
Sun 06:40:22 AM 55.9770 37.4530 72° East 169 194 1,500  Level FlightAware ADS-B
Sun 06:40:42 AM 55.9810 37.4790 75° East 164 189 2,400 1,867 Climbing FlightAware ADS-B
Sun 06:41:07 AM 55.9860 37.5140 76° East 189 217 2,900 1,067 Climbing FlightAware ADS-B
Sun 06:41:27 AM 55.9910 37.5470 75° East 212 244 3,200 900 Climbing FlightAware ADS-B
Sun 06:41:47 AM 55.9960 37.5830 76° East 237 273 3,500 1,200 Climbing FlightAware ADS-B
Sun 06:42:02 AM 56.0000 37.6120 76° East 252 290 3,900 1,886 Climbing FlightAware ADS-B
Sun 06:42:22 AM 56.0070 37.6550 74° East 261 300 4,600 1,800 Climbing FlightAware ADS-B
Sun 06:42:42 AM 56.0130 37.6960 75° East 267 307 5,100 1,886 Climbing FlightAware ADS-B
Sun 06:42:57 AM 56.0210 37.7270 65° Northeast 273 314 5,700 2,286 Climbing FlightAware ADS-B
Sun 06:43:03 AM 56.0250 37.7350 48° Northeast 275 316 5,900 1,800 Climbing FlightAware ADS-B
Sun 06:43:07 AM 56.0300 37.7420 38° Northeast 277 319 6,000 2,526 Climbing FlightAware ADS-B
Sun 06:43:22 AM 56.0480 37.7550 22° Northeast 281 323 6,700 2,400 Climbing FlightAware ADS-B
Sun 06:43:47 AM 56.0800 37.7440 349° North 289 333 7,600 2,200 Climbing FlightAware ADS-B
Sun 06:43:52 AM 56.0850 37.7370 322° Northwest 289 333 7,800 2,400 Climbing FlightAware ADS-B
Sun 06:43:57 AM 56.0890 37.7280 309° West 289 333 8,000 2,400 Climbing FlightAware ADS-B
Sun 06:44:07 AM 56.0960 37.7070 301° West 289 333 8,400 2,400 Climbing FlightAware ADS-B
Sun 06:44:17 AM 56.1000 37.6840 287° West 289 333 8,800 2,400 Climbing FlightAware ADS-B
Sun 06:44:37 AM 56.1080 37.6380 287° West 295 339 9,600 1,900 Climbing FlightAware ADS-B
Sun 06:45:17 AM 56.1250 37.5430 288° West 316 364 10,700 1,920 Climbing FlightAware ADS-B
Sun 06:45:52 AM 56.1400 37.4520 287° West 326 375 12,000 2,229 Climbing FlightAware ADS-B
Sun 06:46:27 AM 56.1560 37.3610 288° West 332 382 13,300 2,229 Climbing FlightAware ADS-B
Sun 06:47:02 AM 56.1710 37.2680 286° West 340 391 14,600 2,229 Climbing FlightAware ADS-B
Sun 06:47:37 AM 56.1860 37.1720 286° West 342 394 15,900 2,057 Climbing FlightAware ADS-B
Sun 06:48:12 AM 56.2030 37.0760 288° West 353 406 17,000 1,920 Climbing FlightAware ADS-B
Sun 06:48:27 AM 56.2180 37.0400 307° West 359 413 17,500 1,855 Climbing FlightAware ADS-B
Sun 06:49:07 AM 56.2730 36.9700 325° Northwest 370 426 18,700 1,760 Climbing FlightAware ADS-B
Sun 06:49:42 AM 56.3220 36.9070 325° Northwest 376 433 19,700 1,714 Climbing FlightAware ADS-B
Sun 06:50:17 AM 56.3720 36.8420 324° Northwest 384 442 20,700 1,600 Climbing FlightAware ADS-B
Sun 06:50:57 AM 56.4280 36.7680 324° Northwest 391 450 21,700 1,543 Climbing FlightAware ADS-B
Sun 06:51:27 AM 56.4740 36.7090 325° Northwest 397 457 22,500 1,477 Climbing FlightAware ADS-B
Sun 06:52:02 AM 56.5260 36.6400 324° Northwest 401 461 23,300 1,629 Climbing FlightAware ADS-B
Sun 06:52:37 AM 56.5790 36.5710 324° Northwest 401 461 24,400 1,600 Climbing FlightAware ADS-B
Sun 06:53:17 AM 56.6390 36.4920 324° Northwest 405 466 25,300 1,286 Climbing FlightAware ADS-B
Sun 06:53:47 AM 56.6840 36.4300 323° Northwest 410 472 25,900 1,108 Climbing FlightAware ADS-B
Sun 06:54:22 AM 56.7370 36.3590 324° Northwest 416 479 26,500 1,029 Climbing FlightAware ADS-B
Sun 06:54:57 AM 56.7890 36.2900 324° Northwest 421 484 27,100 1,114 Climbing FlightAware ADS-B
Sun 06:55:32 AM 56.8470 36.2120 324° Northwest 426 490 27,800 1,029 Climbing FlightAware ADS-B
Sun 06:56:07 AM 56.9020 36.1360 323° Northwest 431 496 28,300 857 Climbing FlightAware ADS-B
Sun 06:56:42 AM 56.9600 36.0580 324° Northwest 438 504 28,800 880 Climbing FlightAware ADS-B
Sun 06:57:22 AM 57.0240 35.9700 323° Northwest 443 510 29,400 943 Climbing FlightAware ADS-B
Sun 06:57:52 AM 57.0740 35.9010 323° Northwest 446 513 29,900 943 Climbing FlightAware ADS-B
Sun 06:58:32 AM 57.1410 35.8100 324° Northwest 452 520 30,500 750 Climbing FlightAware ADS-B
Sun 06:59:12 AM 57.2060 35.7190 323° Northwest 459 528 30,900 750 Climbing FlightAware ADS-B
Sun 06:59:52 AM 57.2760 35.6230 323° Northwest 463 533 31,500 720 Climbing FlightAware ADS-B
Sun 07:00:27 AM 57.3360 35.5380 323° Northwest 470 541 31,800 429 Climbing FlightAware ADS-B
Sun 07:01:02 AM 57.3970 35.4530 323° Northwest 477 549 32,000 171 Climbing FlightAware ADS-B
Sun 07:01:37 AM 57.4580 35.3660 323° Northwest 478 550 32,000  Level FlightAware ADS-B
Sun 07:02:12 AM 57.5200 35.2790 323° Northwest 473 544 32,000  Level FlightAware ADS-B
Sun 07:02:47 AM 57.5800 35.1930 322° Northwest 470 541 32,000  Level FlightAware ADS-B
Sun 07:03:22 AM 57.6400 35.1080 323° Northwest 471 542 32,000  Level FlightAware ADS-B
Sun 07:03:57 AM 57.7010 35.0210 323° Northwest 469 540 32,000  Level FlightAware ADS-B
Sun 07:04:32 AM 57.7590 34.9380 323° Northwest 468 539 32,000  Level FlightAware ADS-B
Sun 07:05:07 AM 57.8200 34.8480 322° Northwest 467 537 32,000  Level FlightAware ADS-B
Sun 07:05:42 AM 57.8790 34.7630 323° Northwest 465 535 32,000  Level FlightAware ADS-B
Sun 07:06:17 AM 57.9390 34.6750 322° Northwest 462 532 32,000  Level FlightAware ADS-B
Sun 07:06:52 AM 57.9980 34.5890 322° Northwest 461 531 32,000  Level FlightAware ADS-B
Sun 07:07:32 AM 58.0650 34.4900 322° Northwest 459 528 32,000 150 Level FlightAware ADS-B
Sun 07:08:12 AM 58.1310 34.3930 322° Northwest 459 528 32,200 429 Climbing FlightAware ADS-B
Sun 07:08:42 AM 58.1780 34.3230 322° Northwest 462 532 32,500 554 Climbing FlightAware ADS-B
Sun 07:09:17 AM 58.2400 34.2280 321° Northwest 472 543 32,800 943 Climbing FlightAware ADS-B
Sun 07:09:52 AM 58.2990 34.1380 321° Northwest 465 535 33,600 960 Climbing FlightAware ADS-B
Sun 07:10:32 AM 58.3500 34.0040 306° West 482 555 34,000 343 Climbing FlightAware ADS-B
Sun 07:11:02 AM 58.3740 33.8950 293° West 487 560 34,000  Level FlightAware ADS-B
Sun 07:11:37 AM 58.4100 33.7510 296° West 487 560 34,000  Level FlightAware ADS-B
Sun 07:12:33 AM 58.4560 33.5640 295° West 484 557 34,000  Level FlightAware ADS-B
Sun 07:13:09 AM 58.4850 33.4450 295° West 484 557 34,000  Level FlightAware ADS-B
Sun 07:13:45 AM 58.5140 33.3260 295° West 484 557 34,000  Level FlightAware ADS-B
Sun 07:14:21 AM 58.5430 33.2070 295° West 484 557 34,000  Level FlightAware ADS-B
Sun 07:14:57 AM 58.5720 33.0880 295° West 484 557 34,000  Level FlightAware ADS-B
Sun 07:15:33 AM 58.6010 32.9690 295° West 484 557 34,000  Level FlightAware ADS-B
Sun 07:16:10 AM 58.6300 32.8460 294° West 484 557 34,000  Level FlightAware ADS-B
Sun 07:16:46 AM 58.6590 32.7270 295° West 484 557 34,000  Level FlightAware ADS-B
Sun 07:17:22 AM 58.6880 32.6070 295° West 484 557 34,000  Level FlightAware ADS-B
Sun 07:17:59 AM 58.7600 32.2770 293° West 473 544 34,000  Level FlightAware ADS-B
Sun 07:18:50 AM 58.7990 32.1030 293° West 473 544 34,000  Level FlightAware ADS-B
Sun 07:19:26 AM 58.8270 31.9840 294° West 473 544 34,000  Level FlightAware ADS-B
Sun 07:20:02 AM 58.8540 31.8660 294° West 473 544 34,000  Level FlightAware ADS-B
Sun 07:20:39 AM 58.8820 31.7450 294° West 473 544 34,000  Level FlightAware ADS-B
Sun 07:21:14 AM 58.9280 31.5250 292° West 472 543 34,000  Level FlightAware ADS-B
Sun 07:21:50 AM 58.9590 31.3860 293° West 472 543 34,000  Level FlightAware ADS-B
Sun 07:22:27 AM 58.9910 31.2390 293° West 473 544 34,000  Level FlightAware ADS-B
Sun 07:22:59 AM 59.0180 31.1140 293° West 473 544 34,000  Level FlightAware ADS-B
Sun 07:23:36 AM 59.0480 30.9740 293° West 475 547 34,000  Level FlightAware ADS-B
Sun 07:24:11 AM 59.0780 30.8380 293° West 477 549 34,000  Level FlightAware ADS-B
Sun 07:24:44 AM 59.1060 30.7050 292° West 478 550 34,000  Level FlightAware ADS-B
Sun 07:25:16 AM 59.1330 30.5760 292° West 479 551 34,000  Level FlightAware ADS-B
Sun 07:25:57 AM 59.1680 30.4110 293° West 481 554 34,000  Level FlightAware ADS-B
Sun 07:26:28 AM 59.1930 30.2880 292° West 482 555 34,000  Level FlightAware ADS-B
Sun 07:27:05 AM 59.2240 30.1420 293° West 482 555 34,000  Level FlightAware ADS-B
Sun 07:27:40 AM 59.2530 30.0000 292° West 482 555 34,000  Level FlightAware ADS-B
Sun 07:28:16 AM 59.2830 29.8520 292° West 481 554 34,000  Level FlightAware ADS-B
Sun 07:28:48 AM 59.3090 29.7230 292° West 480 552 34,000  Level FlightAware ADS-B
Sun 07:29:25 AM 59.3390 29.5770 292° West 480 552 34,000  Level FlightAware ADS-B
Sun 07:30:00 AM 59.3670 29.4330 291° West 480 552 34,000  Level FlightAware ADS-B
Sun 07:30:37 AM 59.3960 29.2870 291° West 480 552 34,000  Level FlightAware ADS-B
Sun 07:31:07 AM 59.4200 29.1650 291° West 481 554 34,000  Level FlightAware ADS-B
Sun 07:31:44 AM 59.4510 29.0110 292° West 481 554 34,000  Level FlightAware ADS-B
Sun 07:32:21 AM 59.4800 28.8610 291° West 482 555 34,000  Level FlightAware ADS-B
Sun 07:32:57 AM 59.5080 28.7120 290° West 482 555 34,000  Level FlightAware ADS-B
Sun 07:33:28 AM 59.5320 28.5900 291° West 482 555 34,000  Level FlightAware ADS-B
Sun 07:34:05 AM 59.5610 28.4340 290° West 482 555 34,000  Level FlightAware ADS-B
Sun 07:34:40 AM 59.5880 28.2920 291° West 482 555 34,000  Level FlightAware ADS-B
Sun 07:35:14 AM 59.6150 28.1480 290° West 481 554 34,000  Level FlightAware ADS-B
Sun 07:35:49 AM 59.6420 28.0050 291° West 481 554 34,000  Level FlightAware ADS-B
Sun 07:36:24 AM 59.6680 27.8650 290° West 479 551 34,000  Level FlightAware ADS-B
Sun 07:37:00 AM 59.6950 27.7130 289° West 479 551 34,000  Level FlightAware ADS-B
Sun 07:37:37 AM 59.7220 27.5650 290° West 479 551 34,000  Level FlightAware ADS-B
Sun 07:38:08 AM 59.7460 27.4360 290° West 478 550 34,000  Level FlightAware ADS-B
Sun 07:38:44 AM 59.7730 27.2850 290° West 477 549 34,000  Level FlightAware ADS-B
Sun 07:39:19 AM 59.7980 27.1440 289° West 477 549 34,000  Level FlightAware ADS-B
Sun 07:39:57 AM 59.8260 26.9840 289° West 476 548 34,000  Level FlightAware ADS-B
Sun 07:40:28 AM 59.8480 26.8590 289° West 476 548 34,000  Level FlightAware ADS-B
Sun 07:41:05 AM 59.8740 26.7070 289° West 475 547 34,000  Level FlightAware ADS-B
Sun 07:41:42 AM 59.9000 26.5580 289° West 475 547 34,000  Level FlightAware ADS-B
Sun 07:42:12 AM 59.9220 26.4280 289° West 475 547 34,000  Level FlightAware ADS-B
Sun 07:42:49 AM 59.9540 26.2780 293° West 472 543 34,000  Level FlightAware ADS-B
Sun 07:43:26 AM 59.9930 26.1430 300° West 467 537 34,000  Level FlightAware ADS-B
Sun 07:44:02 AM 60.0360 26.0110 303° West 470 541 34,000  Level FlightAware ADS-B
Sun 07:44:35 AM 60.0670 25.8820 296° West 471 542 34,000  Level FlightAware ADS-B
Sun 07:45:10 AM 60.1000 25.7470 296° West 471 542 34,000  Level FlightAware ADS-B
Sun 07:45:47 AM 60.1350 25.6040 296° West 471 542 34,000  Level FlightAware ADS-B
Sun 07:46:19 AM 60.1660 25.4780 296° West 471 542 34,000  Level FlightAware ADS-B
Sun 07:46:54 AM 60.1990 25.3420 296° West 471 542 34,000  Level FlightAware ADS-B
Sun 07:47:30 AM 60.2340 25.1970 296° West 472 543 34,000  Level FlightAware ADS-B
Sun 07:48:07 AM 60.2690 25.0520 296° West 473 544 34,000  Level FlightAware ADS-B
Sun 07:48:40 AM 60.3000 24.9240 296° West 472 543 34,000  Level FlightAware ADS-B
Sun 07:49:15 AM 60.3330 24.7850 296° West 473 544 34,000  Level FlightAware ADS-B
Sun 07:49:51 AM 60.3680 24.6380 296° West 474 545 34,000  Level FlightAware ADS-B
Sun 07:50:24 AM 60.3980 24.5080 295° West 473 544 34,000  Level FlightAware ADS-B
Sun 07:50:59 AM 60.4300 24.3710 295° West 473 544 34,000  Level FlightAware ADS-B
Sun 07:51:36 AM 60.4750 24.2350 304° West 461 531 34,000  Level FlightAware ADS-B
Sun 07:52:08 AM 60.5240 24.1400 316° Northwest 459 528 34,000  Level FlightAware ADS-B
Sun 07:52:45 AM 60.5800 24.0290 316° Northwest 461 531 34,000  Level FlightAware ADS-B
Sun 07:53:20 AM 60.6340 23.9230 316° Northwest 461 531 34,000  Level FlightAware ADS-B
Sun 07:53:56 AM 60.6880 23.8140 315° West 461 531 34,000  Level FlightAware ADS-B
Sun 07:54:28 AM 60.7380 23.7160 316° Northwest 461 531 34,000  Level FlightAware ADS-B
Sun 07:55:03 AM 60.7910 23.6100 316° Northwest 459 528 34,000  Level FlightAware ADS-B
Sun 07:55:41 AM 60.8470 23.4970 316° Northwest 459 528 34,000  Level FlightAware ADS-B
Sun 07:56:11 AM 60.8930 23.4040 315° West 459 528 34,000  Level FlightAware ADS-B
Sun 07:56:50 AM 60.9510 23.2860 315° West 460 529 34,000  Level FlightAware ADS-B
Sun 07:57:26 AM 61.0060 23.1730 315° West 461 531 34,000  Level FlightAware ADS-B
Sun 07:57:59 AM 61.0550 23.0730 315° West 461 531 34,000  Level FlightAware ADS-B
Sun 07:58:33 AM 61.1070 22.9650 315° West 462 532 34,000  Level FlightAware ADS-B
Sun 07:59:11 AM 61.1630 22.8500 315° West 461 531 34,000  Level FlightAware ADS-B
Sun 07:59:47 AM 61.2160 22.7390 315° West 460 529 34,000  Level FlightAware ADS-B
Sun 08:00:17 AM 61.2630 22.6400 315° West 459 528 34,000  Level FlightAware ADS-B
Sun 08:00:54 AM 61.3180 22.5240 315° West 460 529 34,000  Level FlightAware ADS-B
Sun 08:01:29 AM 61.3700 22.4140 315° West 460 529 34,000  Level FlightAware ADS-B
Sun 08:02:04 AM 61.4220 22.3030 314° West 461 531 34,000  Level FlightAware ADS-B
Sun 08:02:41 AM 61.4760 22.1880 315° West 461 531 34,000  Level FlightAware ADS-B
Sun 08:03:13 AM 61.5240 22.0850 314° West 461 531 34,000  Level FlightAware ADS-B
Sun 08:03:50 AM 61.5790 21.9660 314° West 462 532 34,000  Level FlightAware ADS-B
Sun 08:04:27 AM 61.6340 21.8460 314° West 461 531 34,000  Level FlightAware ADS-B
Sun 08:04:57 AM 61.6770 21.7520 314° West 460 529 34,000  Level FlightAware ADS-B
Sun 08:05:34 AM 61.7300 21.6350 314° West 459 528 34,000  Level FlightAware ADS-B
Sun 08:06:11 AM 61.7860 21.5130 314° West 458 527 34,000  Level FlightAware ADS-B
Sun 08:06:47 AM 61.8390 21.3950 314° West 456 525 34,000  Level FlightAware ADS-B
Sun 08:07:18 AM 61.8830 21.2970 314° West 456 525 34,000  Level FlightAware ADS-B
Sun 08:07:55 AM 61.9370 21.1740 313° West 456 525 34,000  Level FlightAware ADS-B
Sun 08:08:26 AM 61.9810 21.0760 314° West 456 525 34,000  Level FlightAware ADS-B
Sun 08:09:07 AM 62.0410 20.9400 313° West 456 525 34,000  Level FlightAware ADS-B
Sun 08:09:38 AM 62.0850 20.8400 313° West 455 524 34,000  Level FlightAware ADS-B
Sun 08:10:12 AM 62.1350 20.7270 313° West 454 522 34,000  Level FlightAware ADS-B
Sun 08:10:51 AM 62.1900 20.6000 313° West 455 524 34,000  Level FlightAware ADS-B
Sun 08:11:24 AM 62.2350 20.4950 313° West 455 524 34,000  Level FlightAware ADS-B
Sun 08:11:59 AM 62.2860 20.3760 313° West 453 521 34,000  Level FlightAware ADS-B
Sun 08:12:36 AM 62.3380 20.2550 313° West 452 520 34,000  Level FlightAware ADS-B
Sun 08:13:10 AM 62.3870 20.1390 312° West 452 520 34,000  Level FlightAware ADS-B
Sun 08:13:42 AM 62.4310 20.0370 313° West 452 520 34,000  Level FlightAware ADS-B
Sun 08:14:21 AM 62.4870 19.9040 312° West 453 521 34,000  Level FlightAware ADS-B
Sun 08:14:54 AM 62.5320 19.7970 312° West 454 522 34,000  Level FlightAware ADS-B
Sun 08:15:36 AM 62.5900 19.6560 312° West 454 522 34,000  Level FlightAware ADS-B
Sun 08:16:15 AM 62.6460 19.5210 312° West 454 522 34,000  Level FlightAware ADS-B
Sun 08:16:52 AM 62.6960 19.3990 312° West 454 522 34,000  Level FlightAware ADS-B
Sun 08:17:27 AM 62.7450 19.2800 312° West 448 516 34,000  Level FlightAware ADS-B
Sun 08:18:02 AM 62.7940 19.1600 312° West 448 516 34,000  Level FlightAware ADS-B
Sun 08:18:37 AM 62.8420 19.0410 311° West 447 514 34,000  Level FlightAware ADS-B
Sun 08:19:17 AM 62.8970 18.9050 312° West 447 514 34,000  Level FlightAware ADS-B
Sun 08:19:52 AM 62.9460 18.7830 311° West 446 513 34,000  Level FlightAware ADS-B
Sun 08:20:32 AM 63.0010 18.6440 311° West 446 513 34,000  Level FlightAware ADS-B
Sun 08:21:08 AM 63.0490 18.5240 311° West 445 512 34,000  Level FlightAware ADS-B
Sun 08:21:38 AM 63.0900 18.4200 311° West 444 511 34,000  Level FlightAware ADS-B
Sun 08:22:19 AM 63.1440 18.2810 311° West 445 512 34,000  Level FlightAware ADS-B
Sun 08:22:58 AM 63.1980 18.1420 311° West 447 514 34,000  Level FlightAware ADS-B
Sun 08:23:33 AM 63.2460 18.0190 311° West 451 519 34,000  Level FlightAware ADS-B
Sun 08:24:08 AM 63.2930 17.8960 310° West 451 519 34,000  Level FlightAware ADS-B
Sun 08:24:50 AM 63.3470 17.7540 310° West 452 520 34,000  Level FlightAware ADS-B
Sun 08:25:23 AM 63.3950 17.6280 310° West 452 520 34,000  Level FlightAware ADS-B
Sun 08:25:58 AM 63.4410 17.5090 311° West 452 520 34,000  Level FlightAware ADS-B
Sun 08:26:33 AM 63.4900 17.3770 310° West 452 520 34,000  Level FlightAware ADS-B
Sun 08:27:08 AM 63.5370 17.2510 310° West 452 520 34,000  Level FlightAware ADS-B
Sun 08:27:47 AM 63.5890 17.1100 310° West 451 519 34,000  Level FlightAware ADS-B
Sun 08:28:23 AM 63.6370 16.9820 310° West 451 519 34,000  Level FlightAware ADS-B
Sun 08:28:58 AM 63.6830 16.8570 310° West 452 520 34,000  Level FlightAware ADS-B
Sun 08:29:33 AM 63.7300 16.7270 309° West 453 521 34,000  Level FlightAware ADS-B
Sun 08:30:12 AM 63.7820 16.5850 310° West 454 522 34,000  Level FlightAware ADS-B
Sun 08:30:42 AM 63.8220 16.4740 309° West 454 522 34,000  Level FlightAware ADS-B
Sun 08:31:27 AM 63.8800 16.3120 309° West 449 517 34,000  Level FlightAware ADS-B
Sun 08:32:02 AM 63.9280 16.1780 309° West 448 516 34,000  Level FlightAware ADS-B
Sun 08:32:38 AM 63.9730 16.0490 309° West 448 516 34,000  Level FlightAware ADS-B
Sun 08:33:13 AM 64.0190 15.9180 309° West 448 516 34,000  Level FlightAware ADS-B
Sun 08:33:48 AM 64.0650 15.7870 309° West 449 517 34,000  Level FlightAware ADS-B
Sun 08:34:23 AM 64.1090 15.6620 309° West 448 516 34,000  Level FlightAware ADS-B
Sun 08:34:58 AM 64.1560 15.5270 309° West 449 517 34,000  Level FlightAware ADS-B
Sun 08:35:33 AM 64.2010 15.3960 308° West 449 517 34,000  Level FlightAware ADS-B
Sun 08:36:08 AM 64.2470 15.2600 308° West 448 516 34,000  Level FlightAware ADS-B
Sun 08:36:43 AM 64.2920 15.1290 308° West 449 517 34,000  Level FlightAware ADS-B
Sun 08:37:18 AM 64.3360 14.9970 308° West 452 520 34,000  Level FlightAware ADS-B
Sun 08:37:53 AM 64.3810 14.8630 308° West 451 519 34,000  Level FlightAware ADS-B
Sun 08:38:28 AM 64.4270 14.7280 308° West 451 519 34,000  Level FlightAware ADS-B
Sun 08:39:08 AM 64.4770 14.5750 307° West 450 518 34,000  Level FlightAware ADS-B
Sun 08:39:43 AM 64.5210 14.4410 307° West 450 518 34,000  Level FlightAware ADS-B
Sun 08:40:18 AM 64.5650 14.3090 308° West 451 519 34,000  Level FlightAware ADS-B
Sun 08:40:53 AM 64.6090 14.1720 307° West 452 520 34,000  Level FlightAware ADS-B
Sun 08:41:28 AM 64.6530 14.0380 308° West 453 521 34,000  Level FlightAware ADS-B
Sun 08:42:07 AM 64.7030 13.8830 307° West 455 524 34,000  Level FlightAware ADS-B
Sun 08:42:37 AM 64.7390 13.7680 306° West 456 525 34,000  Level FlightAware ADS-B
Sun 08:43:12 AM 64.7840 13.6270 307° West 456 525 34,000  Level FlightAware ADS-B
Sun 08:43:53 AM 64.8310 13.4780 307° West 456 525 34,000  Level FlightAware ADS-B
Sun 08:44:33 AM 64.8850 13.3080 307° West 457 526 34,000  Level FlightAware ADS-B
Sun 08:45:13 AM 64.9330 13.1530 306° West 452 520 34,000  Level FlightAware ADS-B
Sun 08:45:43 AM 64.9710 13.0310 306° West 452 520 34,000  Level FlightAware ADS-B
Sun 08:46:24 AM 65.0220 12.8640 306° West 455 524 34,000  Level FlightAware ADS-B
Sun 08:46:59 AM 65.0650 12.7210 306° West 454 522 34,000  Level FlightAware ADS-B
Sun 08:47:35 AM 65.1090 12.5790 306° West 455 524 34,000  Level FlightAware ADS-B
Sun 08:48:11 AM 65.1540 12.4280 305° West 456 525 34,000  Level FlightAware ADS-B
Sun 08:48:43 AM 65.1920 12.3010 306° West 456 525 34,000  Level FlightAware ADS-B
Sun 08:49:17 AM 65.2340 12.1600 305° West 456 525 34,000  Level FlightAware ADS-B
Sun 08:50:01 AM 65.2870 11.9810 305° West 455 524 34,000  Level FlightAware ADS-B
Sun 08:50:37 AM 65.3310 11.8300 305° West 456 525 34,000  Level FlightAware ADS-B
Sun 08:51:09 AM 65.3690 11.7010 305° West 457 526 34,000  Level FlightAware ADS-B
Sun 08:51:43 AM 65.4100 11.5580 305° West 457 526 34,000  Level FlightAware ADS-B
Sun 08:52:19 AM 65.4540 11.4060 305° West 456 525 34,000  Level FlightAware ADS-B
Sun 08:52:59 AM 65.5010 11.2440 305° West 456 525 34,000 417 Level FlightAware ADS-B
Sun 08:53:31 AM 65.5390 11.1080 304° West 456 525 34,500 1,125 Climbing FlightAware ADS-B
Sun 08:54:03 AM 65.5770 10.9760 305° West 451 519 35,200 943 Climbing FlightAware ADS-B
Sun 08:54:41 AM 65.6220 10.8150 304° West 453 521 35,600 568 Climbing FlightAware ADS-B
Sun 08:55:17 AM 65.6630 10.6650 304° West 456 525 35,900 353 Climbing FlightAware ADS-B
Sun 08:55:49 AM 65.7010 10.5270 304° West 457 526 36,000 87 Climbing FlightAware ADS-B
Sun 08:56:26 AM 65.7440 10.3730 304° West 457 526 36,000  Level FlightAware ADS-B
Sun 08:56:59 AM 65.7840 10.2280 304° West 457 526 36,000  Level FlightAware ADS-B
Sun 08:57:35 AM 65.8250 10.0750 303° West 458 527 36,000  Level FlightAware ADS-B
Sun 08:58:11 AM 65.8660 9.9210 303° West 457 526 36,000  Level FlightAware ADS-B
Sun 08:58:49 AM 65.9090 9.7600 303° West 457 526 36,000  Level FlightAware ADS-B
Sun 08:59:21 AM 65.9470 9.6200 304° West 456 525 36,000  Level FlightAware ADS-B
Sun 09:00:02 AM 65.9860 9.4650 302° West 456 525 36,000  Level FlightAware ADS-B
Sun 09:00:38 AM 66.0200 9.3300 302° West 456 525 36,000  Level FlightAware ADS-B
Sun 09:01:14 AM 66.0540 9.1950 302° West 456 525 36,000  Level FlightAware ADS-B
Sun 09:01:51 AM 66.0900 9.0570 303° West 456 525 36,000  Level FlightAware ADS-B
Sun 09:02:27 AM 66.1240 8.9210 302° West 456 525 36,000  Level FlightAware ADS-B
Sun 09:03:03 AM 66.1580 8.7860 302° West 456 525 36,000  Level FlightAware ADS-B
Sun 09:03:39 AM 66.1920 8.6500 302° West 456 525 36,000  Level FlightAware ADS-B
Sun 09:04:15 AM 66.2260 8.5150 302° West 456 525 36,000  Level FlightAware ADS-B
Sun 09:04:51 AM 66.2610 8.3790 303° West 456 525 36,000  Level FlightAware ADS-B
Sun 09:05:27 AM 66.2950 8.2430 302° West 456 525 36,000  Level FlightAware ADS-B
Sun 09:06:03 AM 66.3290 8.1060 302° West 456 525 36,000  Level FlightAware ADS-B
Sun 09:06:39 AM 66.3630 7.9700 302° West 456 525 36,000  Level FlightAware ADS-B
Sun 09:07:16 AM 66.3980 7.8290 302° West 456 525 36,000  Level FlightAware ADS-B
Sun 09:07:54 AM 66.4340 7.6850 302° West 456 525 36,000  Level FlightAware ADS-B
Sun 09:08:31 AM 66.4700 7.5440 303° West 456 525 36,000  Level FlightAware ADS-B
Sun 09:09:07 AM 66.5040 7.4070 302° West 456 525 36,000 Level FlightAware ADS-B
Sun 09:11:00 AM 66.5381 6.8782 279° West  Level Estimated
Sun 09:12:00 AM 66.5555 6.5968 279° West  Level Estimated
Sun 09:13:00 AM 66.5724 6.3151 279° West  Level Estimated
Sun 09:14:00 AM 66.5887 6.0330 278° West  Level Estimated
Sun 09:15:00 AM 66.6046 5.7505 278° West  Level Estimated
Sun 09:16:00 AM 66.6199 5.4676 278° West  Level Estimated
Sun 09:17:00 AM 66.6348 5.1844 278° West  Level Estimated
Sun 09:18:00 AM 66.6491 4.9009 277° West  Level Estimated
Sun 09:19:00 AM 66.6629 4.6171 277° West  Level Estimated
Sun 09:20:00 AM 66.6762 4.3329 277° West  Level Estimated
Sun 09:21:00 AM 66.6890 4.0484 277° West  Level Estimated
Sun 09:22:00 AM 66.7013 3.7637 276° West  Level Estimated
Sun 09:23:00 AM 66.7131 3.4787 276° West  Level Estimated
Sun 09:24:00 AM 66.7243 3.1934 276° West  Level Estimated
Sun 09:25:00 AM 66.7351 2.9078 276° West  Level Estimated
Sun 09:26:00 AM 66.7453 2.6220 275° West  Level Estimated
Sun 09:27:00 AM 66.7550 2.3360 275° West  Level Estimated
Sun 09:28:00 AM 66.7642 2.0498 275° West  Level Estimated
Sun 09:29:00 AM 66.7729 1.7633 275° West  Level Estimated
Sun 09:30:00 AM 66.7810 1.4767 274° West  Level Estimated
Sun 09:31:00 AM 66.7886 1.1898 274° West  Level Estimated
Sun 09:32:00 AM 66.7958 0.9028 274° West  Level Estimated
Sun 09:33:00 AM 66.8023 0.6157 273° West  Level Estimated
Sun 09:34:00 AM 66.8084 0.3284 273° West  Level Estimated
Sun 09:35:00 AM 66.8139 0.0409 273° West  Level Estimated
Sun 09:36:00 AM 66.8190 -0.2466 273° West  Level Estimated
Sun 09:37:00 AM 66.8235 -0.5343 272° West  Level Estimated
Sun 09:38:00 AM 66.8274 -0.8221 272° West  Level Estimated
Sun 09:39:00 AM 66.8309 -1.1100 272° West  Level Estimated
Sun 09:40:00 AM 66.8338 -1.3979 272° West  Level Estimated
Sun 09:41:00 AM 66.8362 -1.6859 271° West  Level Estimated
Sun 09:42:00 AM 66.8381 -1.9740 271° West  Level Estimated
Sun 09:43:00 AM 66.8395 -2.2621 271° West  Level Estimated
Sun 09:44:00 AM 66.8403 -2.5502 271° West  Level Estimated
Sun 09:45:00 AM 66.8406 -2.8383 270° West  Level Estimated
Sun 09:46:00 AM 66.8404 -3.1265 270° West  Level Estimated
Sun 09:47:00 AM 66.8397 -3.4146 270° West  Level Estimated
Sun 09:48:00 AM 66.8384 -3.7027 269° West  Level Estimated
Sun 09:49:00 AM 66.8366 -3.9908 269° West  Level Estimated
Sun 09:50:00 AM 66.8343 -4.2788 269° West  Level Estimated
Sun 09:51:00 AM 66.8315 -4.5668 269° West  Level Estimated
Sun 09:52:00 AM 66.8281 -4.8546 268° West  Level Estimated
Sun 09:53:00 AM 66.8242 -5.1424 268° West  Level Estimated
Sun 09:54:00 AM 66.8198 -5.4301 268° West  Level Estimated
Sun 09:55:00 AM 66.8149 -5.7177 268° West  Level Estimated
Sun 09:56:00 AM 66.8095 -6.0052 267° West  Level Estimated
Sun 09:57:00 AM 66.8035 -6.2925 267° West  Level Estimated
Sun 09:58:00 AM 66.7970 -6.5797 267° West  Level Estimated
Sun 09:59:00 AM 66.7900 -6.8667 267° West  Level Estimated
Sun 10:00:00 AM 66.7825 -7.1536 266° West  Level Estimated
Sun 10:01:00 AM 66.7744 -7.4403 266° West  Level Estimated
Sun 10:02:00 AM 66.7658 -7.7268 266° West  Level Estimated
Sun 10:03:00 AM 66.7568 -8.0131 266° West  Level Estimated
Sun 10:04:00 AM 66.7471 -8.2991 265° West  Level Estimated
Sun 10:05:00 AM 66.7370 -8.5850 265° West  Level Estimated
Sun 10:06:00 AM 66.7264 -8.8706 265° West  Level Estimated
Sun 10:07:00 AM 66.7152 -9.1559 264° West  Level Estimated
Sun 10:08:00 AM 66.7035 -9.4410 264° West  Level Estimated
Sun 10:09:00 AM 66.6914 -9.7258 264° West  Level Estimated
Sun 10:10:00 AM 66.6786 -10.0103 264° West  Level Estimated
Sun 10:11:00 AM 66.6654 -10.2945 263° West  Level Estimated
Sun 10:12:00 AM 66.6517 -10.5784 263° West  Level Estimated
Sun 10:13:00 AM 66.6375 -10.8620 263° West  Level Estimated
Sun 10:14:00 AM 66.6227 -11.1453 263° West  Level Estimated
Sun 10:15:00 AM 66.6075 -11.4282 262° West  Level Estimated
Sun 10:16:00 AM 66.5917 -11.7108 262° West  Level Estimated
Sun 10:17:00 AM 66.5754 -11.9930 262° West  Level Estimated
Sun 10:18:00 AM 66.5586 -12.2748 262° West  Level Estimated
Sun 10:19:00 AM 66.5413 -12.5562 261° West  Level Estimated
Sun 10:20:00 AM 66.5235 -12.8372 261° West  Level Estimated
Sun 10:21:00 AM 66.5052 -13.1179 261° West  Level Estimated
Sun 10:22:00 AM 66.4865 -13.3981 261° West  Level Estimated
Sun 10:23:00 AM 66.4671 -13.6778 260° West  Level Estimated
Sun 10:24:00 AM 66.4473 -13.9572 260° West  Level Estimated
Sun 10:25:00 AM 66.4271 -14.2361 260° West  Level Estimated
Sun 10:26:00 AM 66.4063 -14.5145 260° West  Level Estimated
Sun 10:27:00 AM 66.3850 -14.7925 259° West  Level Estimated
Sun 10:28:00 AM 66.3632 -15.0700 259° West  Level Estimated
Sun 10:29:00 AM 66.3409 -15.3470 259° West  Level Estimated
Sun 10:30:00 AM 66.3182 -15.6235 259° West  Level Estimated
Sun 10:31:00 AM 66.2949 -15.8995 258° West  Level Estimated
Sun 10:32:00 AM 66.2712 -16.1750 258° West  Level Estimated
Sun 10:33:00 AM 66.2469 -16.4500 258° West  Level Estimated
Sun 10:34:00 AM 66.2222 -16.7244 258° West  Level Estimated
Sun 10:35:00 AM 66.1970 -16.9983 257° West  Level Estimated
Sun 10:36:00 AM 66.1713 -17.2716 257° West  Level Estimated
Sun 10:37:00 AM 66.1452 -17.5444 257° West  Level Estimated
Sun 10:38:00 AM 66.1186 -17.8166 257° West  Level Estimated
Sun 10:39:00 AM 66.0914 -18.0882 256° West  Level Estimated
Sun 10:40:00 AM 66.0638 -18.3593 256° West  Level Estimated
Sun 10:41:00 AM 66.0358 -18.6297 256° West  Level Estimated
Sun 10:42:00 AM 66.0072 -18.8996 256° West  Level Estimated
Sun 10:43:00 AM 65.9782 -19.1689 255° West  Level Estimated
Sun 10:44:00 AM 65.9487 -19.4375 255° West  Level Estimated
Sun 10:45:00 AM 65.9188 -19.7055 255° West  Level Estimated
Sun 10:46:00 AM 65.8884 -19.9729 255° West  Level Estimated
Sun 10:47:00 AM 65.8575 -20.2396 254° West  Level Estimated
Sun 10:48:00 AM 65.8261 -20.5057 254° West  Level Estimated
Sun 10:49:00 AM 65.7943 -20.7712 254° West  Level Estimated
Sun 10:50:00 AM 65.7621 -21.0359 254° West  Level Estimated
Sun 10:51:00 AM 65.7294 -21.3001 253° West  Level Estimated
Sun 10:52:00 AM 65.6962 -21.5635 253° West  Level Estimated
Sun 10:53:00 AM 65.6626 -21.8263 253° West  Level Estimated
Sun 10:54:00 AM 65.6285 -22.0883 253° West  Level Estimated
Sun 10:55:00 AM 65.5939 -22.3497 252° West  Level Estimated
Sun 10:56:00 AM 65.5590 -22.6104 252° West  Level Estimated
Sun 10:57:00 AM 65.5235 -22.8704 252° West  Level Estimated
Sun 10:58:00 AM 65.4877 -23.1297 252° West  Level Estimated
Sun 10:59:00 AM 65.4514 -23.3882 251° West  Level Estimated
Sun 11:00:00 AM 65.4146 -23.6461 251° West  Level Estimated
Sun 11:01:00 AM 65.3774 -23.9032 251° West  Level Estimated
Sun 11:02:00 AM 65.3398 -24.1595 251° West  Level Estimated
Sun 11:03:00 AM 65.3018 -24.4152 250° West  Level Estimated
Sun 11:04:00 AM 65.2633 -24.6701 250° West  Level Estimated
Sun 11:05:00 AM 65.2243 -24.9242 250° West  Level Estimated
Sun 11:06:00 AM 65.1850 -25.1777 250° West  Level Estimated
Sun 11:07:00 AM 65.1452 -25.4303 250° West  Level Estimated
Sun 11:08:00 AM 65.1050 -25.6822 249° West  Level Estimated
Sun 11:09:00 AM 65.0644 -25.9333 249° West  Level Estimated
Sun 11:10:00 AM 65.0234 -26.1837 249° West  Level Estimated
Sun 11:11:00 AM 64.9820 -26.4333 249° West  Level Estimated
Sun 11:12:00 AM 64.9401 -26.6821 248° West  Level Estimated
Sun 11:13:00 AM 64.8978 -26.9301 248° West  Level Estimated
Sun 11:14:00 AM 64.8551 -27.1773 248° West  Level Estimated
Sun 11:15:00 AM 64.8120 -27.4238 248° West  Level Estimated
Sun 11:16:00 AM 64.7685 -27.6695 248° West  Level Estimated
Sun 11:17:00 AM 64.7246 -27.9144 247° West  Level Estimated
Sun 11:18:00 AM 64.6803 -28.1584 247° West  Level Estimated
Sun 11:19:00 AM 64.6356 -28.4017 247° West  Level Estimated
Sun 11:20:00 AM 64.5853 -28.6718 247° West  Level Estimated
Sun 11:21:00 AM 64.5345 -28.9408 246° West  Level Estimated
Sun 11:22:00 AM 64.4833 -29.2089 246° West  Level Estimated
Sun 11:23:00 AM 64.4315 -29.4759 246° West  Level Estimated
Sun 11:24:00 AM 64.3793 -29.7420 246° West  Level Estimated
Sun 11:25:00 AM 64.3266 -30.0070 245° Southwest  Level Estimated
Sun 11:26:00 AM 64.2734 -30.2710 245° Southwest  Level Estimated
Sun 11:27:00 AM 64.2197 -30.5340 245° Southwest  Level Estimated
Sun 11:28:00 AM 64.1656 -30.7960 245° Southwest  Level Estimated
Sun 11:29:00 AM 64.1110 -31.0569 244° Southwest  Level Estimated
Sun 11:30:00 AM 64.0559 -31.3168 244° Southwest  Level Estimated
Sun 11:31:00 AM 64.0004 -31.5757 244° Southwest  Level Estimated
Sun 11:32:00 AM 63.9444 -31.8336 244° Southwest  Level Estimated
Sun 11:33:00 AM 63.8880 -32.0904 244° Southwest  Level Estimated
Sun 11:34:00 AM 63.8311 -32.3462 243° Southwest  Level Estimated
Sun 11:35:00 AM 63.7737 -32.6009 243° Southwest  Level Estimated
Sun 11:36:00 AM 63.7159 -32.8547 243° Southwest  Level Estimated
Sun 11:37:00 AM 63.6577 -33.1073 243° Southwest  Level Estimated
Sun 11:38:00 AM 63.5990 -33.3590 242° Southwest  Level Estimated
Sun 11:39:00 AM 63.5399 -33.6096 242° Southwest  Level Estimated
Sun 11:40:00 AM 63.4803 -33.8591 242° Southwest  Level Estimated
Sun 11:41:00 AM 63.4203 -34.1077 242° Southwest  Level Estimated
Sun 11:42:00 AM 63.3599 -34.3551 242° Southwest  Level Estimated
Sun 11:43:00 AM 63.2991 -34.6016 241° Southwest  Level Estimated
Sun 11:44:00 AM 63.2378 -34.8470 241° Southwest  Level Estimated
Sun 11:45:00 AM 63.1761 -35.0913 241° Southwest  Level Estimated
Sun 11:46:00 AM 63.1140 -35.3346 241° Southwest  Level Estimated
Sun 11:47:00 AM 63.0515 -35.5769 240° Southwest  Level Estimated
Sun 11:48:00 AM 62.9886 -35.8181 240° Southwest  Level Estimated
Sun 11:49:00 AM 62.9252 -36.0583 240° Southwest  Level Estimated
Sun 11:50:00 AM 62.8615 -36.2975 240° Southwest  Level Estimated
Sun 11:51:00 AM 62.7973 -36.5356 240° Southwest  Level Estimated
Sun 11:52:00 AM 62.7328 -36.7726 239° Southwest  Level Estimated
Sun 11:53:00 AM 62.6678 -37.0087 239° Southwest  Level Estimated
Sun 11:54:00 AM 62.6025 -37.2436 239° Southwest  Level Estimated
Sun 11:55:00 AM 62.5368 -37.4776 239° Southwest  Level Estimated
Sun 11:56:00 AM 62.4706 -37.7105 239° Southwest  Level Estimated
Sun 11:57:00 AM 62.4041 -37.9424 238° Southwest  Level Estimated
Sun 11:58:00 AM 62.3372 -38.1733 238° Southwest  Level Estimated
Sun 11:59:00 AM 62.2700 -38.4031 238° Southwest  Level Estimated
Sun 12:00:00 PM 62.2023 -38.6319 238° Southwest  Level Estimated
Sun 12:01:00 PM 62.1343 -38.8597 237° Southwest  Level Estimated
Sun 12:02:00 PM 62.0659 -39.0865 237° Southwest  Level Estimated
Sun 12:03:00 PM 61.9971 -39.3122 237° Southwest  Level Estimated
Sun 12:04:00 PM 61.9280 -39.5369 237° Southwest  Level Estimated
Sun 12:05:00 PM 61.8585 -39.7606 237° Southwest  Level Estimated
Sun 12:06:00 PM 61.7886 -39.9833 236° Southwest  Level Estimated
Sun 12:07:00 PM 61.7184 -40.2050 236° Southwest  Level Estimated
Sun 12:08:00 PM 61.6478 -40.4256 236° Southwest  Level Estimated
Sun 12:09:00 PM 61.5769 -40.6453 236° Southwest  Level Estimated
Sun 12:10:00 PM 61.5056 -40.8639 236° Southwest  Level Estimated
Sun 12:11:00 PM 61.4340 -41.0816 236° Southwest  Level Estimated
Sun 12:12:00 PM 61.3620 -41.2982 235° Southwest  Level Estimated
Sun 12:13:00 PM 61.2897 -41.5139 235° Southwest  Level Estimated
Sun 12:14:00 PM 61.2170 -41.7285 235° Southwest  Level Estimated
Sun 12:15:00 PM 61.1440 -41.9422 235° Southwest  Level Estimated
Sun 12:15:02 PM 62.4270 -48.8190 235° Southwest 451 519 37,000  Level FlightAware ADS-B
Sun 12:15:40 PM 62.3790 -48.9570 233° Southwest 454 522 37,000  Level FlightAware ADS-B
Sun 12:16:13 PM 62.3360 -49.0770 232° Southwest 455 524 37,000  Level FlightAware ADS-B
Sun 12:16:47 PM 62.2960 -49.1900 233° Southwest 456 525 37,000  Level FlightAware ADS-B
Sun 12:17:20 PM 62.2510 -49.3140 232° Southwest 455 524 37,000  Level FlightAware ADS-B
Sun 12:18:04 PM 62.1940 -49.4710 232° Southwest 453 521 37,000  Level FlightAware ADS-B
Sun 12:18:43 PM 62.1450 -49.6060 232° Southwest 450 518 37,000  Level FlightAware ADS-B
Sun 12:19:23 PM 62.1010 -49.7260 232° Southwest 450 518 37,000  Level FlightAware ADS-B
Sun 12:19:59 PM 62.0620 -49.8330 232° Southwest 450 518 37,000  Level FlightAware ADS-B
Sun 12:20:34 PM 62.0010 -49.9980 232° Southwest 447 514 37,000  Level FlightAware ADS-B
Sun 12:21:10 PM 61.9580 -50.1270 235° Southwest 446 513 37,000  Level FlightAware ADS-B
Sun 12:21:43 PM 61.9210 -50.2440 236° Southwest 447 514 37,000  Level FlightAware ADS-B
Sun 12:22:12 PM 61.8890 -50.3460 236° Southwest 448 516 37,000  Level FlightAware ADS-B
Sun 12:22:51 PM 61.8430 -50.4850 235° Southwest 449 517 37,000  Level FlightAware ADS-B
Sun 12:23:21 PM 61.8070 -50.5960 236° Southwest 450 518 37,000  Level FlightAware ADS-B
Sun 12:24:02 PM 61.7650 -50.7210 235° Southwest 450 518 37,000  Level FlightAware ADS-B
Sun 12:24:38 PM 61.7290 -50.8310 235° Southwest 450 518 37,000  Level FlightAware ADS-B
Sun 12:25:14 PM 61.6920 -50.9410 235° Southwest 450 518 37,000  Level FlightAware ADS-B
Sun 12:25:51 PM 61.6550 -51.0540 235° Southwest 450 518 37,000  Level FlightAware ADS-B
Sun 12:26:28 PM 61.5880 -51.2510 235° Southwest 446 513 37,000  Level FlightAware ADS-B
Sun 12:27:04 PM 61.5510 -51.3580 234° Southwest 446 513 37,000  Level FlightAware ADS-B
Sun 12:27:38 PM 61.5150 -51.4600 234° Southwest 446 513 37,000  Level FlightAware ADS-B
Sun 12:28:14 PM 61.4780 -51.5670 234° Southwest 446 513 37,000  Level FlightAware ADS-B
Sun 12:28:51 PM 61.4400 -51.6770 234° Southwest 446 513 37,000  Level FlightAware ADS-B
Sun 12:29:27 PM 61.4030 -51.7830 234° Southwest 446 513 37,000  Level FlightAware ADS-B
Sun 12:30:03 PM 61.3660 -51.8900 234° Southwest 446 513 37,000  Level FlightAware ADS-B
Sun 12:30:38 PM 61.2820 -52.1400 235° Southwest 449 517 37,000  Level FlightAware ADS-B
Sun 12:31:16 PM 61.2410 -52.2520 233° Southwest 449 517 37,000  Level FlightAware ADS-B
Sun 12:31:51 PM 61.1940 -52.3880 234° Southwest 445 512 37,000  Level FlightAware ADS-B
Sun 12:32:31 PM 61.1520 -52.5040 233° Southwest 445 512 37,000  Level FlightAware ADS-B
Sun 12:33:07 PM 61.1140 -52.6080 233° Southwest 445 512 37,000  Level FlightAware ADS-B
Sun 12:33:53 PM 61.0660 -52.7410 233° Southwest 445 512 37,000  Level FlightAware ADS-B
Sun 12:34:29 PM 61.0280 -52.8450 233° Southwest 445 512 37,000  Level FlightAware ADS-B
Sun 12:35:05 PM 60.9900 -52.9490 233° Southwest 445 512 37,000  Level FlightAware ADS-B
Sun 12:35:42 PM 60.9510 -53.0550 233° Southwest 445 512 37,000  Level FlightAware ADS-B
Sun 12:36:18 PM 60.9130 -53.1590 233° Southwest 445 512 37,000  Level FlightAware ADS-B
Sun 12:36:54 PM 60.8750 -53.2620 233° Southwest 445 512 37,000  Level FlightAware ADS-B
Sun 12:37:30 PM 60.8370 -53.3650 233° Southwest 445 512 37,000  Level FlightAware ADS-B
Sun 12:38:05 PM 60.8000 -53.4660 233° Southwest 445 512 37,000  Level FlightAware ADS-B
Sun 12:38:41 PM 60.7620 -53.5690 233° Southwest 445 512 37,000  Level FlightAware ADS-B
Sun 12:39:31 PM 60.7100 -53.7120 233° Southwest 445 512 37,000  Level FlightAware ADS-B
Sun 12:40:08 PM 60.6710 -53.8170 233° Southwest 445 512 37,000  Level FlightAware ADS-B
Sun 12:40:45 PM 60.6320 -53.9230 233° Southwest 445 512 37,000  Level FlightAware ADS-B
Sun 12:41:21 PM 60.5940 -54.0250 233° Southwest 445 512 37,000  Level FlightAware ADS-B
Sun 12:43:00 PM 60.4653 -54.3579 232° Southwest  Level FlightAware Approximate
Sun 12:44:00 PM 60.3869 -54.5583 232° Southwest  Level FlightAware Approximate
Sun 12:45:00 PM 60.3082 -54.7578 232° Southwest  Level FlightAware Approximate
Sun 12:46:00 PM 60.2291 -54.9564 231° Southwest  Level FlightAware Approximate
Sun 12:47:00 PM 60.1498 -55.1539 231° Southwest  Level FlightAware Approximate
Sun 12:48:00 PM 60.0690 -55.3537 231° Southwest  Level FlightAware Approximate
Sun 12:49:00 PM 59.9878 -55.5524 231° Southwest  Level FlightAware Approximate
Sun 12:50:00 PM 59.9064 -55.7502 231° Southwest  Level FlightAware Approximate
Sun 12:51:00 PM 59.8246 -55.9470 230° Southwest  Level FlightAware Approximate
Sun 12:52:00 PM 59.7425 -56.1429 230° Southwest  Level FlightAware Approximate
Sun 12:53:00 PM 59.6602 -56.3378 230° Southwest  Level FlightAware Approximate
Sun 12:54:00 PM 59.5776 -56.5317 230° Southwest  Level FlightAware Approximate
Sun 12:55:00 PM 59.4947 -56.7247 230° Southwest  Level FlightAware Approximate
Sun 12:55:02 PM 59.4667 -56.8000 229° Southwest 430 495 37,000  Level Gander Center
Sun 12:56:00 PM 59.4115 -56.9167 230° Southwest  Level FlightAware Approximate
Sun 12:56:02 PM 59.3667 -56.9667 220° Southwest 440 506 37,000  Level Gander Center
Sun 12:57:00 PM 59.3280 -57.1078 229° Southwest  Level FlightAware Approximate
Sun 12:57:02 PM 59.3000 -57.1333 232° Southwest 430 495 37,800  Level Gander Center
Sun 12:58:00 PM 59.2443 -57.2980 229° Southwest  Level FlightAware Approximate
Sun 12:58:02 PM 59.2000 -57.2833 218° Southwest 440 506 38,000  Level Gander Center
Sun 12:59:00 PM 59.1602 -57.4872 229° Southwest  Level FlightAware Approximate
Sun 12:59:02 PM 59.1000 -57.4167 214° Southwest 440 506 38,000  Level Gander Center
Sun 01:00:00 PM 59.0759 -57.6755 229° Southwest  Level FlightAware Approximate
Sun 01:00:02 PM 58.9833 -57.5667 214° Southwest 460 529 38,000  Level Gander Center
Sun 01:01:02 PM 58.8667 -57.6667 204° Southwest 460 529 38,000  Level Gander Center
Sun 01:02:02 PM 58.7500 -57.8167 214° Southwest 460 529 38,000  Level Gander Center
Sun 01:03:02 PM 58.6667 -57.9500 220° Southwest 460 529 38,000  Level Gander Center
Sun 01:04:02 PM 58.5500 -58.0500 204° Southwest 460 529 38,000  Level Gander Center
Sun 01:05:02 PM 58.4333 -58.2000 214° Southwest 460 529 38,000  Level Gander Center
Sun 01:06:02 PM 58.3333 -58.3333 215° Southwest 450 518 38,000  Level Gander Center
Sun 01:07:02 PM 58.2167 -58.4333 204° Southwest 450 518 38,000  Level Gander Center
Sun 01:08:02 PM 58.1167 -58.5667 215° Southwest 460 529 38,000  Level Gander Center
Sun 01:09:02 PM 58.0167 -58.7000 215° Southwest 450 518 38,000  Level Gander Center
Sun 01:10:02 PM 57.9000 -58.8000 204° Southwest 460 529 38,000  Level Gander Center
Sun 01:11:02 PM 57.7833 -58.9333 211° Southwest 460 529 38,000  Level Gander Center
Sun 01:12:02 PM 57.6667 -59.0667 211° Southwest 460 529 38,000  Level Gander Center
Sun 01:13:02 PM 57.5667 -59.1667 208° Southwest 460 529 38,000  Level Gander Center
Sun 01:14:02 PM 57.4500 -59.3000 212° Southwest 460 529 38,000  Level Gander Center
Sun 01:15:02 PM 57.3500 -59.4333 216° Southwest 460 529 38,000  Level Gander Center
Sun 01:16:02 PM 57.2333 -59.5167 201° Southwest 460 529 38,000  Level Gander Center
Sun 01:17:02 PM 57.1333 -59.6500 216° Southwest 450 518 38,000  Level Gander Center
Sun 01:18:02 PM 57.0333 -59.7833 216° Southwest 450 518 38,000  Level Gander Center
Sun 01:19:02 PM 56.9167 -59.9000 209° Southwest 460 529 38,000  Level Gander Center
Sun 01:20:02 PM 56.8000 -60.0000 205° Southwest 450 518 38,000  Level Gander Center
Sun 01:21:02 PM 56.7000 -60.1333 216° Southwest 450 518 38,000  Level Gander Center
Sun 01:22:02 PM 56.5833 -60.2167 201° Southwest 460 529 38,000  Level Gander Center
Sun 01:23:02 PM 56.4667 -60.3500 212° Southwest 460 529 38,000  Level Gander Center
Sun 01:24:02 PM 56.3667 -60.4667 213° Southwest 460 529 38,000  Level Gander Center
Sun 01:25:02 PM 56.2500 -60.5667 205° Southwest 460 529 38,000  Level Gander Center
Sun 01:26:02 PM 56.1333 -60.6833 209° Southwest 460 529 38,000  Level Gander Center
Sun 01:27:02 PM 56.0167 -60.8000 209° Southwest 460 529 38,000  Level Gander Center
Sun 01:28:02 PM 55.9000 -60.9167 209° Southwest 460 529 38,000  Level Gander Center
Sun 01:29:02 PM 55.8000 -61.0167 209° Southwest 460 529 38,000  Level Gander Center
Sun 01:30:02 PM 55.6833 -61.1333 209° Southwest 470 541 38,000  Level Gander Center
Sun 01:31:02 PM 55.5667 -61.2500 209° Southwest 470 541 38,000  Level Gander Center
Sun 01:32:02 PM 55.4500 -61.3333 202° Southwest 470 541 38,000  Level Gander Center
Sun 01:33:02 PM 55.3333 -61.4500 210° Southwest 480 552 38,000  Level Gander Center
Sun 01:34:02 PM 55.2167 -61.5667 210° Southwest 480 552 38,000  Level Gander Center
Sun 01:35:02 PM 55.1000 -61.6833 210° Southwest 480 552 38,000  Level Gander Center
Sun 01:36:02 PM 54.9833 -61.8000 210° Southwest 480 552 38,000  Level Gander Center
Sun 01:37:02 PM 54.8667 -61.9167 210° Southwest 480 552 38,000  Level Gander Center
Sun 01:38:02 PM 54.7500 -62.0333 210° Southwest 480 552 38,000  Level Gander Center
Sun 01:39:02 PM 54.6333 -62.1500 210° Southwest 480 552 38,000  Level Gander Center
Sun 01:40:02 PM 54.5167 -62.2333 203° Southwest 480 552 38,000  Level Gander Center
Sun 01:41:02 PM 54.4000 -62.3500 210° Southwest 480 552 38,000  Level Gander Center
Sun 01:42:02 PM 54.2833 -62.4500 207° Southwest 480 552 38,000  Level Gander Center
Sun 01:43:02 PM 54.1500 -62.5667 207° Southwest 480 552 38,000  Level Gander Center
Sun 01:44:02 PM 54.0333 -62.6833 210° Southwest 480 552 38,000  Level Gander Center
Sun 01:45:02 PM 53.9167 -62.7500 199° South 480 552 38,000  Level Gander Center
Sun 01:46:02 PM 53.8000 -62.8667 211° Southwest 480 552 38,000  Level Gander Center
Sun 01:47:02 PM 53.6833 -62.9833 211° Southwest 480 552 38,000  Level Gander Center
Sun 01:48:02 PM 53.5667 -63.0833 207° Southwest 480 552 38,000  Level Gander Center
Sun 01:49:02 PM 53.4500 -63.1833 207° Southwest 480 552 38,000  Level Gander Center
Sun 01:50:02 PM 53.3167 -63.3000 208° Southwest 490 564 38,000  Level Gander Center
Sun 01:51:02 PM 53.2000 -63.4000 207° Southwest 490 564 38,000  Level Gander Center
Sun 01:52:02 PM 53.0667 -63.5167 208° Southwest 490 564 38,000  Level Gander Center
Sun 01:53:02 PM 52.9500 -63.6167 207° Southwest 490 564 38,000  Level Gander Center
Sun 01:54:02 PM 52.8167 -63.7167 204° Southwest 490 564 38,000  Level Gander Center
Sun 01:55:02 PM 52.7000 -63.8167 207° Southwest 490 564 38,000  Level Gander Center
Sun 01:55:52 PM 52.6000 -63.8667 197° South 500 575 38,000  Level Moncton Center
Sun 01:57:02 PM 52.4667 -64.0000 211° Southwest 490 564 38,000  Level Gander Center
Sun 01:57:52 PM 52.3667 -64.1000 211° Southwest 500 575 38,000  Level Moncton Center
Sun 01:58:52 PM 52.2333 -64.2000 205° Southwest 500 575 38,000  Level Moncton Center
Sun 01:59:52 PM 52.1167 -64.2833 204° Southwest 500 575 38,000  Level Moncton Center
Sun 02:00:52 PM 51.9833 -64.4000 208° Southwest 500 575 38,000  Level Moncton Center
Sun 02:01:52 PM 51.8667 -64.5000 208° Southwest 500 575 38,000  Level Moncton Center
Sun 02:02:52 PM 51.7333 -64.5833 201° Southwest 500 575 38,000  Level Moncton Center
Sun 02:03:52 PM 51.6000 -64.7000 209° Southwest 510 587 38,000  Level Moncton Center
Sun 02:04:52 PM 51.4833 -64.8000 208° Southwest 510 587 38,000  Level Moncton Center
Sun 02:05:52 PM 51.3500 -64.9000 205° Southwest 510 587 38,000  Level Moncton Center
Sun 02:06:52 PM 51.2167 -64.9833 201° Southwest 510 587 38,000  Level Moncton Center
Sun 02:07:52 PM 51.1000 -65.0833 208° Southwest 510 587 38,000  Level Moncton Center
Sun 02:08:52 PM 50.9667 -65.2000 209° Southwest 510 587 38,000  Level Moncton Center
Sun 02:10:02 PM 50.8000 -65.3000 201° Southwest 520 598 38,000  Level Gander Center
Sun 02:11:02 PM 50.6833 -65.4000 209° Southwest 520 598 38,000  Level Gander Center
Sun 02:12:02 PM 50.5500 -65.5167 209° Southwest 520 598 38,000  Level Gander Center
Sun 02:13:02 PM 50.4000 -65.6167 203° Southwest 520 598 38,000  Level Gander Center
Sun 02:14:02 PM 50.2833 -65.7000 205° Southwest 530 610 38,000  Level Gander Center
Sun 02:15:02 PM 50.1500 -65.8000 206° Southwest 530 610 38,000  Level Gander Center
Sun 02:16:02 PM 50.0167 -65.8833 202° Southwest 530 610 38,000  Level Gander Center
Sun 02:17:02 PM 49.8667 -66.0000 207° Southwest 530 610 38,000  Level Gander Center
Sun 02:18:02 PM 49.7500 -66.1000 209° Southwest 530 610 38,000  Level Gander Center
Sun 02:18:52 PM 49.6500 -66.1500 198° South 530 610 38,000  Level Moncton Center
Sun 02:19:52 PM 49.5000 -66.2833 210° Southwest 530 610 38,000  Level Moncton Center
Sun 02:20:52 PM 49.3500 -66.3500 196° South 530 610 38,000  Level Moncton Center
Sun 02:21:52 PM 49.2167 -66.4500 206° Southwest 540 621 38,000  Level Moncton Center
Sun 02:22:52 PM 49.0833 -66.5500 206° Southwest 540 621 38,000  Level Moncton Center
Sun 02:23:52 PM 48.9500 -66.6333 202° Southwest 540 621 38,000  Level Moncton Center
Sun 02:24:52 PM 48.8167 -66.7333 206° Southwest 540 621 38,000  Level Moncton Center
Sun 02:30:22 PM 48.0730 -67.2540 206° Southwest 38,000  Level FlightAware ADS-B
Sun 02:31:36 PM 47.8940 -67.3730 204° Southwest 551 634 38,000  Level FlightAware ADS-B
Sun 02:32:10 PM 47.8110 -67.4280 204° Southwest 550 633 38,000  Level FlightAware ADS-B
Sun 02:32:45 PM 47.7290 -67.4810 204° Southwest 549 632 38,000  Level FlightAware ADS-B
Sun 02:33:20 PM 47.6480 -67.5340 204° Southwest 549 632 38,000  Level FlightAware ADS-B
Sun 02:33:55 PM 47.5670 -67.5870 204° Southwest 549 632 38,000  Level FlightAware ADS-B
Sun 02:34:30 PM 47.4880 -67.6390 204° Southwest 549 632 38,000  Level FlightAware ADS-B
Sun 02:35:05 PM 47.4040 -67.6930 204° Southwest 550 633 38,000  Level FlightAware ADS-B
Sun 02:35:40 PM 47.3280 -67.7420 204° Southwest 551 634 38,000  Level FlightAware ADS-B
Sun 02:36:20 PM 47.2310 -67.8050 204° Southwest 552 635 38,000  Level FlightAware ADS-B
Sun 02:36:55 PM 47.1470 -67.8580 203° Southwest 553 636 38,000  Level FlightAware ADS-B
Sun 02:37:35 PM 47.0570 -67.9160 204° Southwest 554 638 38,000  Level FlightAware ADS-B
Sun 02:38:01 PM 46.9970 -67.9540 203° Southwest 552 635 38,000  Level FlightAware ADS-B
Sun 02:38:40 PM 46.9060 -68.0120 204° Southwest 553 636 38,000  Level FlightAware ADS-B
Sun 02:39:28 PM 46.8050 -68.0740 203° Southwest 553 636 38,000  Level FlightAware ADS-B
Sun 02:39:52 PM 46.7320 -68.1090 198° South 557 641 38,000  Level FlightAware ADS-B
Sun 02:40:23 PM 46.6560 -68.1400 196° South 557 641 38,000  Level FlightAware ADS-B
Sun 02:40:59 PM 46.5720 -68.1780 197° South 558 642 38,000  Level FlightAware ADS-B
Sun 02:41:43 PM 46.4530 -68.2280 196° South 560 644 38,000  Level FlightAware ADS-B
Sun 02:42:20 PM 46.3610 -68.2660 196° South 562 647 38,000  Level FlightAware ADS-B
Sun 02:42:55 PM 46.2730 -68.3020 196° South 563 648 38,000  Level FlightAware ADS-B
Sun 02:43:35 PM 46.1740 -68.3430 196° South 564 649 38,000  Level FlightAware ADS-B
Sun 02:44:10 PM 46.0860 -68.3790 196° South 566 651 38,000  Level FlightAware ADS-B
Sun 02:44:45 PM 45.9990 -68.4140 196° South 567 652 38,000  Level FlightAware ADS-B
Sun 02:45:20 PM 45.9130 -68.4490 196° South 569 655 38,000  Level FlightAware ADS-B
Sun 02:45:55 PM 45.8220 -68.4860 196° South 568 654 38,000  Level FlightAware ADS-B
Sun 02:46:30 PM 45.7330 -68.5220 196° South 568 654 38,000  Level FlightAware ADS-B
Sun 02:47:06 PM 45.6480 -68.5560 196° South 569 655 38,000  Level FlightAware ADS-B
Sun 02:47:40 PM 45.5570 -68.5920 195° South 569 655 38,000  Level FlightAware ADS-B
Sun 02:48:15 PM 45.4680 -68.6280 196° South 569 655 38,000  Level FlightAware ADS-B
Sun 02:48:50 PM 45.3780 -68.6630 195° South 571 657 38,000  Level FlightAware ADS-B
Sun 02:49:25 PM 45.2970 -68.6960 196° South 571 657 38,000  Level FlightAware ADS-B
Sun 02:50:00 PM 45.2020 -68.7330 195° South 571 657 38,000  Level FlightAware ADS-B
Sun 02:50:30 PM 45.1250 -68.7630 195° South 572 658 38,000  Level FlightAware ADS-B
Sun 02:51:05 PM 45.0360 -68.7980 196° South 573 659 38,000  Level FlightAware ADS-B
Sun 02:51:45 PM 44.9340 -68.8380 196° South 573 659 38,000  Level FlightAware ADS-B
Sun 02:52:20 PM 44.8520 -68.8730 197° South 573 659 38,000  Level FlightAware ADS-B
Sun 02:52:58 PM 44.7590 -68.9260 202° Southwest 567 652 38,000  Level FlightAware ADS-B
Sun 02:53:28 PM 44.6860 -68.9780 207° Southwest 567 652 38,000  Level FlightAware ADS-B
Sun 02:53:57 PM 44.6210 -69.0240 207° Southwest 567 652 38,000  Level FlightAware ADS-B
Sun 02:54:31 PM 44.5400 -69.0800 206° Southwest 569 655 38,000  Level FlightAware ADS-B
Sun 02:55:09 PM 44.4510 -69.1400 206° Southwest 568 654 38,000  Level FlightAware ADS-B
Sun 02:55:45 PM 44.3690 -69.1950 206° Southwest 567 652 38,000  Level FlightAware ADS-B
Sun 02:56:18 PM 44.2840 -69.2520 206° Southwest 567 652 38,000  Level FlightAware ADS-B
Sun 02:56:54 PM 44.1990 -69.3090 206° Southwest 567 652 38,000  Level FlightAware ADS-B
Sun 02:57:27 PM 44.1220 -69.3610 206° Southwest 568 654 38,000  Level FlightAware ADS-B
Sun 02:58:01 PM 44.0430 -69.4130 205° Southwest 567 652 38,000  Level FlightAware ADS-B
Sun 02:58:30 PM 43.9750 -69.4590 206° Southwest 567 652 38,000  Level FlightAware ADS-B
Sun 02:59:05 PM 43.8970 -69.5100 205° Southwest 567 652 38,000  Level FlightAware ADS-B
Sun 02:59:55 PM 43.7730 -69.5920 206° Southwest 567 652 38,000  Level FlightAware ADS-B
Sun 03:00:30 PM 43.6950 -69.6430 205° Southwest 567 652 38,000  Level FlightAware ADS-B
Sun 03:01:05 PM 43.6110 -69.6980 205° Southwest 567 652 38,000  Level FlightAware ADS-B
Sun 03:01:40 PM 43.5240 -69.7550 205° Southwest 568 654 38,000  Level FlightAware ADS-B
Sun 03:02:15 PM 43.4380 -69.7980 200° South 573 659 38,000  Level FlightAware ADS-B
Sun 03:02:50 PM 43.3560 -69.8270 194° South 564 649 38,000  Level FlightAware ADS-B
Sun 03:03:30 PM 43.2530 -69.8520 190° South 565 650 38,000  Level FlightAware ADS-B
Sun 03:04:15 PM 43.1280 -69.8750 188° South 565 650 38,000  Level FlightAware ADS-B
Sun 03:04:55 PM 43.0210 -69.8940 187° South 565 650 38,000  Level FlightAware ADS-B
Sun 03:05:30 PM 42.9370 -69.9060 186° South 566 651 38,000  Level FlightAware ADS-B
Sun 03:06:05 PM 42.8400 -69.9200 186° South 568 654 38,000  Level FlightAware ADS-B
Sun 03:06:40 PM 42.7430 -69.9340 186° South 569 655 38,000  Level FlightAware ADS-B
Sun 03:07:15 PM 42.6520 -69.9470 186° South 578 665 38,000  Level FlightAware ADS-B
Sun 03:07:53 PM 42.5450 -69.9620 186° South 579 666 38,000  Level FlightAware ADS-B
Sun 03:08:29 PM 42.4500 -69.9760 186° South 578 665 38,000  Level FlightAware ADS-B
Sun 03:09:01 PM 42.3640 -69.9880 186° South 578 665 38,000  Level FlightAware ADS-B
Sun 03:09:35 PM 42.2740 -70.0050 188° South 579 666 38,000  Level FlightAware ADS-B
Sun 03:10:13 PM 42.1750 -70.0380 194° South 581 669 38,000  Level FlightAware ADS-B
Sun 03:11:02 PM 42.0550 -70.1030 202° Southwest 571 657 38,000  Level FlightAware ADS-B
Sun 03:11:32 PM 41.9910 -70.1500 209° Southwest 576 663 38,000  Level FlightAware ADS-B
Sun 03:12:10 PM 41.9110 -70.2230 214° Southwest 565 650 38,000  Level FlightAware ADS-B
Sun 03:12:52 PM 41.8200 -70.3300 221° Southwest 557 641 38,000  Level FlightAware ADS-B
Sun 03:13:23 PM 41.7700 -70.4020 227° Southwest 554 638 38,000  Level FlightAware ADS-B
Sun 03:14:02 PM 41.6980 -70.5050 227° Southwest 560 644 38,000  Level FlightAware ADS-B
Sun 03:14:37 PM 41.6340 -70.5970 227° Southwest 559 643 38,000  Level FlightAware ADS-B
Sun 03:15:13 PM 41.5700 -70.6900 227° Southwest 559 643 38,000  Level FlightAware ADS-B
Sun 03:15:45 PM 41.5170 -70.7660 227° Southwest 553 636 38,000  Level FlightAware ADS-B
Sun 03:16:25 PM 41.4470 -70.8660 227° Southwest 552 635 38,000  Level FlightAware ADS-B
Sun 03:17:05 PM 41.3760 -70.9680 227° Southwest 551 634 38,000  Level FlightAware ADS-B
Sun 03:17:35 PM 41.3260 -71.0430 228° Southwest 551 634 38,000  Level FlightAware ADS-B
Sun 03:18:11 PM 41.2740 -71.1370 234° Southwest 537 618 38,000  Level FlightAware ADS-B
Sun 03:18:27 PM 41.2501 -71.1891 239° Southwest 537 618 38,000  Level FlightAware ADS-B
Sun 03:19:37 PM 41.1680 -71.3910 242° Southwest 553 636 38,000  Level FlightAware ADS-B
Sun 03:20:11 PM 41.1160 -71.4670 228° Southwest 556 640 38,000  Level FlightAware ADS-B
Sun 03:20:50 PM 41.0430 -71.5730 228° Southwest 554 638 38,000  Level FlightAware ADS-B
Sun 03:21:00 PM 41.0241 -71.6006 228° Southwest 555 639 38,000  Level FlightAware ADS-B
Sun 03:21:58 PM 40.9260 -71.7420 227° Southwest 552 635 38,000  Level FlightAware ADS-B
Sun 03:22:36 PM 40.8586 -71.8400 228° Southwest 553 636 38,000  Level FlightAware ADS-B
Sun 03:23:37 PM 40.7560 -71.9870 227° Southwest 554 638 38,000  Level FlightAware ADS-B
Sun 03:23:49 PM 40.7324 -72.0213 228° Southwest 553 636 38,000  Level FlightAware ADS-B
Sun 03:24:55 PM 40.6181 -72.1846 227° Southwest 557 641 38,000  Level FlightAware ADS-B
Sun 03:25:39 PM 40.5410 -72.2941 227° Southwest 557 641 38,000  Level FlightAware ADS-B
Sun 03:26:17 PM 40.4746 -72.3880 227° Southwest 558 642 38,000  Level FlightAware ADS-B
Sun 03:26:49 PM 40.4186 -72.4672 227° Southwest 558 642 38,000  Level FlightAware ADS-B
Sun 03:27:32 PM 40.3429 -72.5737 227° Southwest 557 641 38,000  Level FlightAware ADS-B
Sun 03:28:06 PM 40.2838 -72.6566 227° Southwest 557 641 38,000  Level FlightAware ADS-B
Sun 03:28:36 PM 40.2300 -72.7321 227° Southwest 555 639 38,000  Level FlightAware ADS-B
Sun 03:29:18 PM 40.1563 -72.8349 227° Southwest 556 640 38,000  Level FlightAware ADS-B
Sun 03:30:04 PM 40.0763 -72.9462 227° Southwest 558 642 38,000  Level FlightAware ADS-B
Sun 03:30:36 PM 40.0194 -73.0250 227° Southwest 558 642 38,000  Level FlightAware ADS-B
Sun 03:31:06 PM 39.9666 -73.0981 227° Southwest 558 642 38,000  Level FlightAware ADS-B
Sun 03:31:37 PM 39.9123 -73.1730 227° Southwest 557 641 38,000  Level FlightAware ADS-B
Sun 03:32:16 PM 39.8432 -73.2680 227° Southwest 557 641 38,000  Level FlightAware ADS-B
Sun 03:32:58 PM 39.7688 -73.3700 227° Southwest 557 641 38,000  Level FlightAware ADS-B
Sun 03:33:38 PM 39.6975 -73.4675 226° Southwest 557 641 38,000  Level FlightAware ADS-B
Sun 03:34:10 PM 39.6367 -73.5419 223° Southwest 559 643 38,000  Level FlightAware ADS-B
Sun 03:34:41 PM 39.5715 -73.6000 214° Southwest 564 649 38,000  Level FlightAware ADS-B
Sun 03:35:14 PM 39.4995 -73.6638 214° Southwest 564 649 38,000  Level FlightAware ADS-B
Sun 03:35:54 PM 39.4133 -73.7404 214° Southwest 564 649 38,000  Level FlightAware ADS-B
Sun 03:36:25 PM 39.3476 -73.7986 214° Southwest 565 650 38,000  Level FlightAware ADS-B
Sun 03:36:55 PM 39.2823 -73.8564 214° Southwest 566 651 38,000  Level FlightAware ADS-B
Sun 03:37:32 PM 39.2025 -73.9268 214° Southwest 568 654 38,000  Level FlightAware ADS-B
Sun 03:38:05 PM 39.1309 -73.9897 214° Southwest 568 654 38,000  Level FlightAware ADS-B
Sun 03:38:36 PM 39.0644 -74.0480 214° Southwest 567 652 38,000  Level FlightAware ADS-B
Sun 03:39:06 PM 38.9997 -74.1046 214° Southwest 567 652 38,000  Level FlightAware ADS-B
Sun 03:39:37 PM 38.9322 -74.1636 214° Southwest 569 655 38,000  Level FlightAware ADS-B
Sun 03:40:26 PM 38.8290 -74.2530 214° Southwest 568 654 38,000  Level FlightAware ADS-B
Sun 03:40:40 PM 38.7953 -74.2827 214° Southwest 568 654 38,000  Level FlightAware ADS-B
Sun 03:41:13 PM 38.7230 -74.3454 214° Southwest 569 655 38,000  Level FlightAware ADS-B
Sun 03:41:58 PM 38.6245 -74.4305 214° Southwest 568 654 38,000  Level FlightAware ADS-B
Sun 03:42:40 PM 38.5346 -74.5080 214° Southwest 567 652 38,000  Level FlightAware ADS-B
Sun 03:43:11 PM 38.4670 -74.5661 214° Southwest 565 650 38,000  Level FlightAware ADS-B
Sun 03:43:52 PM 38.3784 -74.6420 214° Southwest 563 648 38,000  Level FlightAware ADS-B
Sun 03:44:24 PM 38.3088 -74.7015 214° Southwest 559 643 38,000  Level FlightAware ADS-B
Sun 03:45:01 PM 38.2340 -74.7652 214° Southwest 559 643 38,000  Level FlightAware ADS-B
Sun 03:45:44 PM 38.1540 -74.8330 214° Southwest 558 642 38,000  Level FlightAware ADS-B
Sun 03:46:04 PM 38.0963 -74.8823 214° Southwest 559 643 38,000  Level FlightAware ADS-B
Sun 03:46:45 PM 38.0078 -74.9572 214° Southwest 555 639 38,000  Level FlightAware ADS-B
Sun 03:47:16 PM 37.9414 -75.0132 214° Southwest 553 636 38,000  Level FlightAware ADS-B
Sun 03:47:47 PM 37.8767 -75.0677 214° Southwest 550 633 38,000  Level FlightAware ADS-B
Sun 03:48:54 PM 37.7337 -75.1877 214° Southwest 549 632 38,000  Level FlightAware ADS-B
Sun 03:49:25 PM 37.6679 -75.2428 214° Southwest 548 631 38,000  Level FlightAware ADS-B
Sun 03:49:56 PM 37.6034 -75.2966 213° Southwest 548 631 38,000  Level FlightAware ADS-B
Sun 03:50:26 PM 37.5393 -75.3500 213° Southwest 549 632 38,000  Level FlightAware ADS-B
Sun 03:51:08 PM 37.4504 -75.4238 213° Southwest 554 638 38,000  Level FlightAware ADS-B
Sun 03:51:41 PM 37.3797 -75.4824 213° Southwest 559 643 38,000  Level FlightAware ADS-B
Sun 03:52:40 PM 37.2513 -75.5885 213° Southwest 559 643 38,000  Level FlightAware ADS-B
Sun 03:53:20 PM 37.1670 -75.6580 213° Southwest 556 640 38,000  Level FlightAware ADS-B
Sun 03:53:52 PM 37.0987 -75.7140 213° Southwest 554 638 38,000  Level FlightAware ADS-B
Sun 03:54:22 PM 37.0440 -75.7590 213° Southwest 553 636 38,000  Level FlightAware ADS-B
Sun 03:54:27 PM 37.0221 -75.7768 213° Southwest 552 635 38,000  Level FlightAware ADS-B
Sun 03:54:58 PM 36.9557 -75.8310 213° Southwest 551 634 38,000  Level FlightAware ADS-B
Sun 03:55:32 PM 36.8852 -75.8886 213° Southwest 551 634 38,000  Level FlightAware ADS-B
Sun 03:56:42 PM 36.7346 -76.0110 213° Southwest 555 639 38,000  Level FlightAware ADS-B
Sun 03:57:47 PM 36.6040 -76.1170 213° Southwest 554 638 38,000  Level FlightAware ADS-B
Sun 03:58:20 PM 36.5300 -76.1770 213° Southwest 555 639 38,000  Level FlightAware ADS-B
Sun 03:58:55 PM 36.4560 -76.2360 213° Southwest 555 639 38,000  Level FlightAware ADS-B
Sun 03:59:35 PM 36.3670 -76.3070 213° Southwest 555 639 38,000  Level FlightAware ADS-B
Sun 04:00:05 PM 36.3020 -76.3590 213° Southwest 556 640 38,000  Level FlightAware ADS-B
Sun 04:00:39 PM 36.2280 -76.4180 213° Southwest 556 640 38,000  Level FlightAware ADS-B
Sun 04:01:20 PM 36.1400 -76.4890 213° Southwest 556 640 38,000  Level FlightAware ADS-B
Sun 04:01:50 PM 36.0760 -76.5390 212° Southwest 554 638 38,000  Level FlightAware ADS-B
Sun 04:02:45 PM 35.9590 -76.6320 213° Southwest 555 639 38,000  Level FlightAware ADS-B
Sun 04:03:27 PM 35.8660 -76.7050 212° Southwest 555 639 38,000  Level FlightAware ADS-B
Sun 04:04:04 PM 35.7990 -76.7600 214° Southwest 555 639 38,000  Level FlightAware ADS-B
Sun 04:05:16 PM 35.6336 -76.8853 214° Southwest 557 641 38,000  Level Washington Center
Sun 04:06:16 PM 35.5222 -76.9753 213° Southwest 546 628 38,000  Level Washington Center
Sun 04:07:17 PM 35.3917 -77.0750 212° Southwest 556 640 38,000  Level Washington Center
Sun 04:08:15 PM 35.2650 -77.1744 213° Southwest 556 640 38,000  Level Washington Center
Sun 04:09:16 PM 35.1364 -77.2733 212° Southwest 556 640 38,000  Level Washington Center
Sun 04:10:16 PM 35.0097 -77.3722 213° Southwest 556 640 38,000  Level Washington Center
Sun 04:11:14 PM 34.8811 -77.4681 211° Southwest 556 640 38,000  Level Washington Center
Sun 04:17:31 PM 34.0430 -77.9640 211° Southwest 517 595 38,000  Level FlightAware ADS-B
Sun 04:18:06 PM 33.9640 -77.9870 194° South 514 592 38,000  Level FlightAware ADS-B
Sun 04:18:46 PM 33.8730 -78.0130 193° South 511 588 38,000  Level FlightAware ADS-B
Sun 04:19:16 PM 33.8010 -78.0340 194° South 506 582 38,000  Level FlightAware ADS-B
Sun 04:19:53 PM 33.7300 -78.0540 193° South 505 581 38,000  Level FlightAware ADS-B
Sun 04:20:31 PM 33.6490 -78.0770 193° South 505 581 38,000  Level FlightAware ADS-B
Sun 04:21:11 PM 33.5400 -78.1090 194° South 501 577 38,000  Level FlightAware ADS-B
Sun 04:22:11 PM 33.4050 -78.1480 194° South 500 575 38,000  Level FlightAware ADS-B
Sun 04:22:56 PM 33.3140 -78.1730 193° South 499 574 38,000  Level FlightAware ADS-B
Sun 04:23:26 PM 33.2370 -78.1950 193° South 499 574 38,000  Level FlightAware ADS-B
Sun 04:24:01 PM 33.1600 -78.2170 193° South 498 573 38,000  Level FlightAware ADS-B
Sun 04:24:36 PM 33.0780 -78.2400 193° South 498 573 38,000  Level FlightAware ADS-B
Sun 04:25:11 PM 33.0010 -78.2620 193° South 496 571 38,000  Level FlightAware ADS-B
Sun 04:25:46 PM 32.9250 -78.2840 194° South 496 571 38,000  Level FlightAware ADS-B
Sun 04:26:21 PM 32.8440 -78.3070 193° South 497 572 38,000  Level FlightAware ADS-B
Sun 04:26:56 PM 32.7660 -78.3290 193° South 497 572 38,000  Level FlightAware ADS-B
Sun 04:27:36 PM 32.6830 -78.3520 193° South 488 562 38,000  Level FlightAware ADS-B
Sun 04:28:16 PM 32.5910 -78.3770 193° South 479 551 38,000  Level FlightAware ADS-B
Sun 04:28:51 PM 32.5150 -78.3990 194° South 479 551 38,000  Level FlightAware ADS-B
Sun 04:29:42 PM 32.4150 -78.4260 193° South 478 550 38,000  Level FlightAware ADS-B
Sun 04:30:18 PM 32.4130 -78.4270 203° Southwest 478 550 38,000  Level FlightAware ADS-B
Sun 04:30:56 PM 32.4620 -78.4130 14° North 475 547 38,000  Level FlightAware ADS-B
Sun 04:32:06 PM 32.1700 -78.4970 194° South 474 545 38,000  Level FlightAware ADS-B
Sun 04:32:42 PM 32.1050 -78.5150 193° South 474 545 38,000  Level FlightAware ADS-B
Sun 04:33:20 PM 32.0360 -78.5340 193° South 474 545 38,000  Level FlightAware ADS-B
Sun 04:33:56 PM 31.9700 -78.5520 193° South 474 545 38,000  Level FlightAware ADS-B
Sun 04:34:33 PM 31.9030 -78.5700 193° South 474 545 38,000  Level FlightAware ADS-B
Sun 04:35:10 PM 31.8360 -78.5880 193° South 474 545 38,000  Level FlightAware ADS-B
Sun 04:35:46 PM 31.7710 -78.6060 193° South 474 545 38,000  Level FlightAware ADS-B
Sun 04:36:22 PM 31.7050 -78.6240 193° South 474 545 38,000  Level FlightAware ADS-B
Sun 04:36:58 PM 31.6400 -78.6410 193° South 474 545 38,000  Level FlightAware ADS-B
Sun 04:37:35 PM 31.5730 -78.6600 194° South 474 545 38,000  Level FlightAware ADS-B
Sun 04:38:11 PM 31.5070 -78.6770 192° South 474 545 38,000  Level FlightAware ADS-B
Sun 04:38:47 PM 31.4420 -78.6950 193° South 474 545 38,000  Level FlightAware ADS-B
Sun 04:39:23 PM 31.3760 -78.7130 193° South 474 545 38,000  Level FlightAware ADS-B
Sun 04:40:00 PM 31.3090 -78.7310 193° South 474 545 38,000  Level FlightAware ADS-B
Sun 04:40:36 PM 31.2440 -78.7490 193° South 474 545 38,000  Level FlightAware ADS-B
Sun 04:41:12 PM 31.1790 -78.7660 193° South 474 545 38,000  Level FlightAware ADS-B
Sun 04:42:18 PM 30.8278 -78.8842 193° South 461 531 38,000  Level Jacksonville Center
Sun 04:44:19 PM 30.5797 -78.9511 193° South 457 526 38,000  Level Miami Center
Sun 04:45:19 PM 30.4583 -78.9872 194° South 457 526 38,000  Level Miami Center
Sun 04:46:19 PM 30.3347 -79.0306 197° South 457 526 38,000  Level Miami Center
Sun 04:47:19 PM 30.2172 -79.0808 200° South 457 526 38,000  Level Miami Center
Sun 04:48:19 PM 30.0933 -79.1264 198° South 457 526 38,000  Level Miami Center
Sun 04:49:19 PM 29.9781 -79.1742 200° South 457 526 38,000  Level Miami Center
Sun 04:50:19 PM 29.8564 -79.2194 198° South 457 526 38,000  Level Miami Center
Sun 04:51:19 PM 29.7386 -79.2694 200° South 457 526 38,000  Level Miami Center
Sun 04:52:19 PM 29.6169 -79.3144 198° South 457 526 38,000  Level Miami Center
Sun 04:57:49 PM 28.9430 -79.5650 198° South 38,000  Level FlightAware ADS-B
Sun 04:58:42 PM 28.8490 -79.6000 198° South 459 528 38,000  Level FlightAware ADS-B
Sun 04:59:19 PM 28.7610 -79.6330 198° South 459 528 38,000  Level FlightAware ADS-B
Sun 04:59:54 PM 28.6860 -79.6620 199° South 459 528 38,000  Level FlightAware ADS-B
Sun 05:00:34 PM 28.6050 -79.6920 198° South 459 528 38,000  Level FlightAware ADS-B
Sun 05:01:14 PM 28.5210 -79.7230 198° South 459 528 38,000  Level FlightAware ADS-B
Sun 05:02:13 PM 28.4010 -79.7680 198° South 460 529 38,000  Level FlightAware ADS-B
Sun 05:02:47 PM 28.3300 -79.7940 198° South 460 529 38,000  Level FlightAware ADS-B
Sun 05:03:22 PM 28.2580 -79.8210 198° South 459 528 38,000  Level FlightAware ADS-B
Sun 05:04:07 PM 28.1640 -79.8560 198° South 458 527 38,000  Level FlightAware ADS-B
Sun 05:04:37 PM 28.1040 -79.8780 198° South 457 526 38,000  Level FlightAware ADS-B
Sun 05:05:12 PM 28.0310 -79.9050 198° South 457 526 38,000  Level FlightAware ADS-B
Sun 05:05:47 PM 27.9630 -79.9300 198° South 458 527 38,000  Level FlightAware ADS-B
Sun 05:06:22 PM 27.8870 -79.9580 198° South 458 527 38,000  Level FlightAware ADS-B
Sun 05:07:07 PM 27.8020 -79.9900 198° South 458 527 38,000  Level FlightAware ADS-B
Sun 05:07:47 PM 27.7200 -80.0200 198° South 460 529 38,000  Level FlightAware ADS-B
Sun 05:08:22 PM 27.6440 -80.0480 198° South 470 541 38,000  Level FlightAware ADS-B
Sun 05:08:57 PM 27.5690 -80.0750 198° South 471 542 38,000  Level FlightAware ADS-B
Sun 05:09:37 PM 27.4880 -80.1050 198° South 471 542 38,000  Level FlightAware ADS-B
Sun 05:10:07 PM 27.4220 -80.1290 198° South 471 542 38,000  Level FlightAware ADS-B
Sun 05:10:42 PM 27.3510 -80.1550 198° South 471 542 38,000  Level FlightAware ADS-B
Sun 05:11:18 PM 27.2790 -80.1810 198° South 471 542 38,000  Level FlightAware ADS-B
Sun 05:11:52 PM 27.2060 -80.2080 198° South 471 542 38,000  Level FlightAware ADS-B
Sun 05:12:27 PM 27.1310 -80.2350 198° South 471 542 38,000  Level FlightAware ADS-B
Sun 05:13:02 PM 27.0630 -80.2600 198° South 470 541 38,000  Level FlightAware ADS-B
Sun 05:13:37 PM 26.9930 -80.2850 198° South 472 543 38,000  Level FlightAware ADS-B
Sun 05:14:12 PM 26.9230 -80.3110 198° South 473 544 38,000  Level FlightAware ADS-B
Sun 05:14:47 PM 26.8490 -80.3370 197° South 474 545 38,000  Level FlightAware ADS-B
Sun 05:15:18 PM 26.7780 -80.3630 198° South 474 545 38,000  Level FlightAware ADS-B
Sun 05:15:58 PM 26.6940 -80.3930 198° South 473 544 38,000  Level FlightAware ADS-B
Sun 05:16:34 PM 26.6190 -80.4200 198° South 473 544 38,000  Level FlightAware ADS-B
Sun 05:17:08 PM 26.5500 -80.4450 198° South 475 547 38,000  Level FlightAware ADS-B
Sun 05:17:44 PM 26.4750 -80.4720 198° South 477 549 38,000  Level FlightAware ADS-B
Sun 05:18:18 PM 26.3980 -80.5000 198° South 472 543 38,000  Level FlightAware ADS-B
Sun 05:18:54 PM 26.3300 -80.5240 198° South 473 544 38,000  Level FlightAware ADS-B
Sun 05:19:28 PM 26.2510 -80.5520 198° South 471 542 38,000  Level FlightAware ADS-B
Sun 05:20:04 PM 26.1770 -80.5790 198° South 471 542 38,000  Level FlightAware ADS-B
Sun 05:20:38 PM 26.1020 -80.6050 197° South 471 542 38,000  Level FlightAware ADS-B
Sun 05:21:13 PM 26.0280 -80.6320 198° South 470 541 38,000  Level FlightAware ADS-B
Sun 05:21:48 PM 25.9550 -80.6580 198° South 470 541 38,000  Level FlightAware ADS-B
Sun 05:22:24 PM 25.8810 -80.6840 198° South 471 542 38,000  Level FlightAware ADS-B
Sun 05:22:58 PM 25.8100 -80.7090 198° South 472 543 38,000  Level FlightAware ADS-B
Sun 05:23:34 PM 25.7310 -80.7370 198° South 472 543 38,000  Level FlightAware ADS-B
Sun 05:24:13 PM 25.6470 -80.7670 198° South 473 544 38,000  Level FlightAware ADS-B
Sun 05:24:48 PM 25.5720 -80.7940 198° South 474 545 38,000  Level FlightAware ADS-B
Sun 05:25:24 PM 25.4980 -80.8200 198° South 474 545 38,000  Level FlightAware ADS-B
Sun 05:25:59 PM 25.4210 -80.8470 198° South 476 548 38,000  Level FlightAware ADS-B
Sun 05:26:34 PM 25.3490 -80.8720 197° South 477 549 38,000  Level FlightAware ADS-B
Sun 05:27:14 PM 25.2610 -80.9030 198° South 487 560 38,000  Level FlightAware ADS-B
Sun 05:27:54 PM 25.1760 -80.9330 198° South 487 560 38,000  Level FlightAware ADS-B
Sun 05:28:30 PM 25.1000 -80.9600 198° South 486 559 38,000  Level FlightAware ADS-B
Sun 05:29:04 PM 25.0260 -80.9860 198° South 486 559 38,000  Level FlightAware ADS-B
Sun 05:29:39 PM 24.9490 -81.0130 198° South 476 548 38,000  Level FlightAware ADS-B
Sun 05:30:09 PM 24.8890 -81.0380 201° Southwest 474 545 38,000  Level FlightAware ADS-B
Sun 05:30:54 PM 24.7990 -81.0930 209° Southwest 477 549 38,000  Level FlightAware ADS-B
Sun 05:31:29 PM 24.7390 -81.1430 217° Southwest 470 541 38,000 -171 Level FlightAware ADS-B
Sun 05:32:04 PM 24.6830 -81.2030 224° Southwest 471 542 37,800 -686 Descending FlightAware ADS-B
Sun 05:32:39 PM 24.6350 -81.2660 230° Southwest 469 540 37,200 -943 Descending FlightAware ADS-B
Sun 05:33:14 PM 24.5930 -81.3380 237° Southwest 466 536 36,700 -943 Descending FlightAware ADS-B
Sun 05:33:49 PM 24.5600 -81.4040 241° Southwest 470 541 36,100 -1,029 Descending FlightAware ADS-B
Sun 05:34:24 PM 24.5210 -81.4820 241° Southwest 470 541 35,500 -1,029 Descending FlightAware ADS-B
Sun 05:34:59 PM 24.4840 -81.5570 242° Southwest 471 542 34,900 -1,029 Descending FlightAware ADS-B
Sun 05:35:34 PM 24.4490 -81.6270 241° Southwest 460 529 34,300 -1,029 Descending FlightAware ADS-B
Sun 05:36:09 PM 24.4110 -81.7010 241° Southwest 456 525 33,700 -1,029 Descending FlightAware ADS-B
Sun 05:36:44 PM 24.3750 -81.7740 242° Southwest 454 522 33,100 -1,371 Descending FlightAware ADS-B
Sun 05:37:19 PM 24.3400 -81.8440 241° Southwest 450 518 32,100 -1,765 Descending FlightAware ADS-B
Sun 05:37:52 PM 24.3070 -81.9100 241° Southwest 445 512 31,100 -1,765 Descending FlightAware ADS-B
Sun 05:38:27 PM 24.2720 -81.9800 241° Southwest 444 511 30,100 -1,760 Descending FlightAware ADS-B
Sun 05:39:07 PM 24.2320 -82.0590 241° Southwest 438 504 28,900 -1,886 Descending FlightAware ADS-B
Sun 05:39:37 PM 24.2060 -82.1110 241° Southwest 435 501 27,900 -982 Descending FlightAware ADS-B
Sun 05:40:02 PM 24.1820 -82.1590 241° Southwest 424 488 28,000 -385 Climbing FlightAware ADS-B
Sun 05:40:55 PM 24.1300 -82.2620 241° Southwest 430 495 27,400 -1,172 Descending FlightAware ADS-B
Sun 05:41:29 PM 24.0950 -82.3280 240° Southwest 431 496 26,300 -917 Descending FlightAware ADS-B
Sun 05:42:07 PM 24.0640 -82.3900 241° Southwest 431 496 26,300  Level FlightAware ADS-B
Sun 05:42:44 PM 24.0330 -82.4500 241° Southwest 431 496 26,300  Level FlightAware ADS-B
Sun 05:43:18 PM 24.0050 -82.5050 241° Southwest 431 496 26,300  Level FlightAware ADS-B
Sun 05:43:42 PM 23.9860 -82.5440 242° Southwest 431 496 26,300  Level FlightAware ADS-B
Sun 05:44:18 PM 23.9560 -82.6020 240° Southwest 431 496 26,300  Level FlightAware ADS-B
Sun 05:44:54 PM 23.9270 -82.6600 241° Southwest 431 496 26,300  Level FlightAware ADS-B
Sun 05:50:00 PM 23.2393 -82.4756 166° South  Level Estimated
Sun 05:51:00 PM 23.1044 -82.4397 166° South  Level Estimated
Sun 05:52:00 PM 22.9891 -82.4091 166° South  Level Estimated
Sun 05:53:00 PM 22.9891 -82.4091 51° Northeast  Level Estimated
Sun 05:54:00 PM 22.9891 -82.4091 51° Northeast  Level Estimated
Sun 05:55:00 PM 22.9891 -82.4091 51° Northeast  Level Estimated
Sun 05:56:00 PM 22.9891 -82.4091 51° Northeast  Level Estimated
Sun 05:57:00 PM 22.9891 -82.4091 51° Northeast  Level Estimated
Sun 05:58:00 PM 22.9891 -82.4091 51° Northeast  Level Estimated
Sun 05:59:00 PM 22.9891 -82.4091 51° Northeast  Level Estimated
Sun 06:00:00 PM 22.9891 -82.4091 51° Northeast  Level Estimated
Sun 06:01:00 PM 22.9891 -82.4091 51° Northeast  Level Estimated
Sun 06:02:00 PM 22.9891 -82.4091 51° Northeast  Level Estimated
Sun 06:03:00 PM 22.9891 -82.4091 51° Northeast  Level Estimated
Sun 06:04:00 PM 22.9891 -82.4091 51° Northeast  Level Estimated
Sun 06:05:00 PM 22.9891 -82.4091 51° Northeast  Level Estimated
Sun 06:06:00 PM 22.9891 -82.4091 51° Northeast  Level Estimated
Sun 06:07:00 PM 22.9891 -82.4091 51° Northeast  Level Estimated
Sun 06:08:00 PM 22.9891 -82.4091 51° Northeast  Level Estimated

Login

Don't have an account? Register now (free) for customized features, flight alerts, and more!